<?xml version="1.0" encoding="UTF-8" standalone="no" ?>
<gpx xmlns="http://www.topografix.com/GPX/1/1" xmlns:xsi="http://www.w3.org/2001/XMLSchema-instance" xsi:schemaLocation="http://www.topografix.com/GPX/1/1 http://www.topografix.com/GPX/1/1/gpx.xsd" version="1.1" creator="VisuGPX - https://www.visugpx.com">
  <metadata>
    <name>Montagne de l'Arsuc et Col de Perty à partir de Ruissas</name>
    <desc><![CDATA[Trace à réaliser suite incendie]]></desc>
  </metadata>
  <wpt lat="44.28882" lon="5.52656">
    <ele>902.1</ele>
    <name><![CDATA[Parking au bord de la D65]]></name>
  </wpt>
  <wpt lat="44.29122" lon="5.52206">
    <ele>961.2</ele>
    <name><![CDATA[Croisement après les Brousses]]></name>
  </wpt>
  <wpt lat="44.29727" lon="5.52698">
    <ele>1154</ele>
    <name><![CDATA[Carrefour pour l'aller et le retour]]></name>
  </wpt>
  <wpt lat="44.30669" lon="5.49966">
    <ele>1091.6</ele>
    <name><![CDATA[À droite sur la piste]]></name>
  </wpt>
  <wpt lat="44.31286" lon="5.49208">
    <ele>1175.7</ele>
    <name><![CDATA[Virage en épingle]]></name>
  </wpt>
  <wpt lat="44.31121" lon="5.50018">
    <ele>1274.5</ele>
    <name><![CDATA[ En dessous du Col de Chauvac]]></name>
  </wpt>
  <wpt lat="44.28719" lon="5.54612">
    <ele>1259.4</ele>
    <name><![CDATA[À droite à la descente]]></name>
  </wpt>
  <wpt lat="44.28885" lon="5.52663">
    <ele>904.5</ele>
    <name><![CDATA[Parking au bord de la D65]]></name>
  </wpt>
  <trk>
    <name><![CDATA[Montagne de l'Arsuc et Col de Perty à partir de Ruissas]]></name>
    <extensions>
      <line xmlns="http://www.topografix.com/GPX/gpx_style/0/2">
        <color>0000FF</color>
        <width>4</width>
      </line>
    </extensions>
    <trkseg>
      <trkpt lat="44.28882" lon="5.52656">
        <ele>905</ele>
        <time>2016-05-15T09:38:16+02:00</time>
      </trkpt>
      <trkpt lat="44.28837" lon="5.5271">
        <ele>910</ele>
      </trkpt>
      <trkpt lat="44.2882" lon="5.52741">
        <ele>912</ele>
      </trkpt>
      <trkpt lat="44.28808" lon="5.52794">
        <ele>921</ele>
      </trkpt>
      <trkpt lat="44.28852" lon="5.52746">
        <ele>921</ele>
      </trkpt>
      <trkpt lat="44.2888" lon="5.52705">
        <ele>916</ele>
      </trkpt>
      <trkpt lat="44.28915" lon="5.52694">
        <ele>919</ele>
      </trkpt>
      <trkpt lat="44.28935" lon="5.52694">
        <ele>920</ele>
      </trkpt>
      <trkpt lat="44.28952" lon="5.52719">
        <ele>927</ele>
        <time>2016-05-15T09:38:38+02:00</time>
      </trkpt>
      <trkpt lat="44.28964" lon="5.52745">
        <ele>932</ele>
      </trkpt>
      <trkpt lat="44.28968" lon="5.52764">
        <ele>935</ele>
      </trkpt>
      <trkpt lat="44.28975" lon="5.52813">
        <ele>943</ele>
        <time>2016-05-15T09:39:06+02:00</time>
      </trkpt>
      <trkpt lat="44.28988" lon="5.52849">
        <ele>948</ele>
        <time>2016-05-15T09:39:28+02:00</time>
      </trkpt>
      <trkpt lat="44.29002" lon="5.52875">
        <ele>952</ele>
        <time>2016-05-15T09:39:51+02:00</time>
      </trkpt>
      <trkpt lat="44.2902" lon="5.52896">
        <ele>957</ele>
        <time>2016-05-15T09:40:14+02:00</time>
      </trkpt>
      <trkpt lat="44.29033" lon="5.52923">
        <ele>963</ele>
        <time>2016-05-15T09:40:34+02:00</time>
      </trkpt>
      <trkpt lat="44.29047" lon="5.52898">
        <ele>960</ele>
        <time>2016-05-15T09:41:11+02:00</time>
      </trkpt>
      <trkpt lat="44.29043" lon="5.52865">
        <ele>956</ele>
        <time>2016-05-15T09:41:34+02:00</time>
      </trkpt>
      <trkpt lat="44.29051" lon="5.52834">
        <ele>954</ele>
        <time>2016-05-15T09:41:57+02:00</time>
      </trkpt>
      <trkpt lat="44.2905" lon="5.52802">
        <ele>951</ele>
        <time>2016-05-15T09:42:17+02:00</time>
      </trkpt>
      <trkpt lat="44.2905" lon="5.5277">
        <ele>948</ele>
        <time>2016-05-15T09:42:37+02:00</time>
      </trkpt>
      <trkpt lat="44.29054" lon="5.52737">
        <ele>947</ele>
        <time>2016-05-15T09:42:58+02:00</time>
      </trkpt>
      <trkpt lat="44.29053" lon="5.52721">
        <ele>945</ele>
      </trkpt>
      <trkpt lat="44.29051" lon="5.52705">
        <ele>944</ele>
        <time>2016-05-15T09:43:18+02:00</time>
      </trkpt>
      <trkpt lat="44.2905" lon="5.52673">
        <ele>941</ele>
        <time>2016-05-15T09:43:40+02:00</time>
      </trkpt>
      <trkpt lat="44.29053" lon="5.52641">
        <ele>941</ele>
        <time>2016-05-15T09:44:00+02:00</time>
      </trkpt>
      <trkpt lat="44.29057" lon="5.52608">
        <ele>941</ele>
        <time>2016-05-15T09:44:22+02:00</time>
      </trkpt>
      <trkpt lat="44.29061" lon="5.52574">
        <ele>941</ele>
        <time>2016-05-15T09:44:44+02:00</time>
      </trkpt>
      <trkpt lat="44.29063" lon="5.52541">
        <ele>942</ele>
        <time>2016-05-15T09:45:06+02:00</time>
      </trkpt>
      <trkpt lat="44.29069" lon="5.52511">
        <ele>944</ele>
        <time>2016-05-15T09:45:31+02:00</time>
      </trkpt>
      <trkpt lat="44.29085" lon="5.5246">
        <ele>950</ele>
      </trkpt>
      <trkpt lat="44.29078" lon="5.52419">
        <ele>951</ele>
        <time>2016-05-15T09:48:04+02:00</time>
      </trkpt>
      <trkpt lat="44.29077" lon="5.52387">
        <ele>952</ele>
        <time>2016-05-15T09:48:30+02:00</time>
      </trkpt>
      <trkpt lat="44.2907" lon="5.52356">
        <ele>953</ele>
        <time>2016-05-15T09:48:52+02:00</time>
      </trkpt>
      <trkpt lat="44.29068" lon="5.52323">
        <ele>953</ele>
        <time>2016-05-15T09:49:15+02:00</time>
      </trkpt>
      <trkpt lat="44.29071" lon="5.52292">
        <ele>951</ele>
        <time>2016-05-15T09:49:49+02:00</time>
      </trkpt>
      <trkpt lat="44.29065" lon="5.52258">
        <ele>947</ele>
        <time>2016-05-15T09:50:08+02:00</time>
      </trkpt>
      <trkpt lat="44.29081" lon="5.52231">
        <ele>947</ele>
        <time>2016-05-15T09:50:36+02:00</time>
      </trkpt>
      <trkpt lat="44.29101" lon="5.52218">
        <ele>949</ele>
        <time>2016-05-15T09:50:54+02:00</time>
      </trkpt>
      <trkpt lat="44.29122" lon="5.52206">
        <ele>952</ele>
        <time>2016-05-15T09:51:23+02:00</time>
      </trkpt>
      <trkpt lat="44.29144" lon="5.52193">
        <ele>956</ele>
        <time>2016-05-15T09:51:50+02:00</time>
      </trkpt>
      <trkpt lat="44.29166" lon="5.52194">
        <ele>962</ele>
        <time>2016-05-15T09:52:12+02:00</time>
      </trkpt>
      <trkpt lat="44.29181" lon="5.5222">
        <ele>968</ele>
        <time>2016-05-15T09:52:42+02:00</time>
      </trkpt>
      <trkpt lat="44.29188" lon="5.5225">
        <ele>975</ele>
        <time>2016-05-15T09:53:16+02:00</time>
      </trkpt>
      <trkpt lat="44.2921" lon="5.5226">
        <ele>980</ele>
        <time>2016-05-15T09:54:02+02:00</time>
      </trkpt>
      <trkpt lat="44.29234" lon="5.52254">
        <ele>985</ele>
        <time>2016-05-15T09:54:31+02:00</time>
      </trkpt>
      <trkpt lat="44.29257" lon="5.52255">
        <ele>989</ele>
        <time>2016-05-15T09:55:00+02:00</time>
      </trkpt>
      <trkpt lat="44.2928" lon="5.5226">
        <ele>993</ele>
        <time>2016-05-15T09:55:22+02:00</time>
      </trkpt>
      <trkpt lat="44.29303" lon="5.52263">
        <ele>996</ele>
        <time>2016-05-15T09:55:50+02:00</time>
      </trkpt>
      <trkpt lat="44.29326" lon="5.5226">
        <ele>999</ele>
        <time>2016-05-15T09:56:18+02:00</time>
      </trkpt>
      <trkpt lat="44.29348" lon="5.52252">
        <ele>1001</ele>
        <time>2016-05-15T09:59:00+02:00</time>
      </trkpt>
      <trkpt lat="44.29372" lon="5.52249">
        <ele>1004</ele>
        <time>2016-05-15T09:59:25+02:00</time>
      </trkpt>
      <trkpt lat="44.29394" lon="5.52259">
        <ele>1009</ele>
        <time>2016-05-15T09:59:55+02:00</time>
      </trkpt>
      <trkpt lat="44.29406" lon="5.52288">
        <ele>1015</ele>
        <time>2016-05-15T10:00:24+02:00</time>
      </trkpt>
      <trkpt lat="44.29404" lon="5.52319">
        <ele>1019</ele>
        <time>2016-05-15T10:00:50+02:00</time>
      </trkpt>
      <trkpt lat="44.29402" lon="5.52351">
        <ele>1022</ele>
        <time>2016-05-15T10:01:18+02:00</time>
      </trkpt>
      <trkpt lat="44.294" lon="5.52385">
        <ele>1025</ele>
        <time>2016-05-15T10:01:42+02:00</time>
      </trkpt>
      <trkpt lat="44.29397" lon="5.52418">
        <ele>1027</ele>
        <time>2016-05-15T10:02:08+02:00</time>
      </trkpt>
      <trkpt lat="44.29399" lon="5.5245">
        <ele>1032</ele>
        <time>2016-05-15T10:02:38+02:00</time>
      </trkpt>
      <trkpt lat="44.29395" lon="5.52483">
        <ele>1035</ele>
        <time>2016-05-15T10:03:04+02:00</time>
      </trkpt>
      <trkpt lat="44.29389" lon="5.52514">
        <ele>1039</ele>
        <time>2016-05-15T10:03:24+02:00</time>
      </trkpt>
      <trkpt lat="44.29384" lon="5.52545">
        <ele>1044</ele>
        <time>2016-05-15T10:03:50+02:00</time>
      </trkpt>
      <trkpt lat="44.29374" lon="5.52574">
        <ele>1046</ele>
        <time>2016-05-15T10:04:18+02:00</time>
      </trkpt>
      <trkpt lat="44.29363" lon="5.52603">
        <ele>1048</ele>
        <time>2016-05-15T10:04:48+02:00</time>
      </trkpt>
      <trkpt lat="44.29357" lon="5.52633">
        <ele>1050</ele>
        <time>2016-05-15T10:05:18+02:00</time>
      </trkpt>
      <trkpt lat="44.29357" lon="5.52666">
        <ele>1056</ele>
        <time>2016-05-15T10:05:52+02:00</time>
      </trkpt>
      <trkpt lat="44.29379" lon="5.52662">
        <ele>1060</ele>
        <time>2016-05-15T10:10:12+02:00</time>
      </trkpt>
      <trkpt lat="44.29401" lon="5.5265">
        <ele>1064</ele>
        <time>2016-05-15T10:10:42+02:00</time>
      </trkpt>
      <trkpt lat="44.29423" lon="5.52638">
        <ele>1069</ele>
        <time>2016-05-15T10:11:09+02:00</time>
      </trkpt>
      <trkpt lat="44.29445" lon="5.52635">
        <ele>1074</ele>
        <time>2016-05-15T10:11:34+02:00</time>
      </trkpt>
      <trkpt lat="44.29465" lon="5.52619">
        <ele>1078</ele>
        <time>2016-05-15T10:12:04+02:00</time>
      </trkpt>
      <trkpt lat="44.29486" lon="5.52603">
        <ele>1083</ele>
        <time>2016-05-15T10:12:34+02:00</time>
      </trkpt>
      <trkpt lat="44.2951" lon="5.52596">
        <ele>1090</ele>
        <time>2016-05-15T10:13:22+02:00</time>
      </trkpt>
      <trkpt lat="44.29533" lon="5.52584">
        <ele>1095</ele>
        <time>2016-05-15T10:13:58+02:00</time>
      </trkpt>
      <trkpt lat="44.29552" lon="5.52564">
        <ele>1097</ele>
        <time>2016-05-15T10:14:32+02:00</time>
      </trkpt>
      <trkpt lat="44.29573" lon="5.52549">
        <ele>1102</ele>
        <time>2016-05-15T10:14:50+02:00</time>
      </trkpt>
      <trkpt lat="44.2959" lon="5.52528">
        <ele>1105</ele>
        <time>2016-05-15T10:15:10+02:00</time>
      </trkpt>
      <trkpt lat="44.29622" lon="5.52483">
        <ele>1107</ele>
        <time>2016-05-15T10:16:07+02:00</time>
      </trkpt>
      <trkpt lat="44.29642" lon="5.52465">
        <ele>1109</ele>
        <time>2016-05-15T10:16:38+02:00</time>
      </trkpt>
      <trkpt lat="44.29663" lon="5.52455">
        <ele>1114</ele>
        <time>2016-05-15T10:17:06+02:00</time>
      </trkpt>
      <trkpt lat="44.29685" lon="5.52444">
        <ele>1120</ele>
        <time>2016-05-15T10:17:35+02:00</time>
      </trkpt>
      <trkpt lat="44.29708" lon="5.52442">
        <ele>1126</ele>
        <time>2016-05-15T10:18:00+02:00</time>
      </trkpt>
      <trkpt lat="44.2973" lon="5.52449">
        <ele>1133</ele>
        <time>2016-05-15T10:18:22+02:00</time>
      </trkpt>
      <trkpt lat="44.29751" lon="5.52466">
        <ele>1139</ele>
        <time>2016-05-15T10:18:50+02:00</time>
      </trkpt>
      <trkpt lat="44.29767" lon="5.52489">
        <ele>1143</ele>
        <time>2016-05-15T10:19:14+02:00</time>
      </trkpt>
      <trkpt lat="44.29775" lon="5.52518">
        <ele>1147</ele>
        <time>2016-05-15T10:19:38+02:00</time>
      </trkpt>
      <trkpt lat="44.29771" lon="5.5255">
        <ele>1148</ele>
        <time>2016-05-15T10:20:04+02:00</time>
      </trkpt>
      <trkpt lat="44.29763" lon="5.5258">
        <ele>1147</ele>
        <time>2016-05-15T10:20:28+02:00</time>
      </trkpt>
      <trkpt lat="44.29755" lon="5.5261">
        <ele>1149</ele>
        <time>2016-05-15T10:20:56+02:00</time>
      </trkpt>
      <trkpt lat="44.29727" lon="5.52698">
        <ele>1153</ele>
        <time>2016-05-15T10:26:24+02:00</time>
      </trkpt>
      <trkpt lat="44.29745" lon="5.52676">
        <ele>1156</ele>
        <time>2016-05-15T10:26:58+02:00</time>
      </trkpt>
      <trkpt lat="44.29762" lon="5.52654">
        <ele>1158</ele>
        <time>2016-05-15T10:28:08+02:00</time>
      </trkpt>
      <trkpt lat="44.29778" lon="5.52631">
        <ele>1160</ele>
        <time>2016-05-15T10:28:38+02:00</time>
      </trkpt>
      <trkpt lat="44.29793" lon="5.52606">
        <ele>1162</ele>
        <time>2016-05-15T10:29:08+02:00</time>
      </trkpt>
      <trkpt lat="44.29809" lon="5.52583">
        <ele>1164</ele>
        <time>2016-05-15T10:29:32+02:00</time>
      </trkpt>
      <trkpt lat="44.29821" lon="5.52556">
        <ele>1165</ele>
        <time>2016-05-15T10:29:58+02:00</time>
      </trkpt>
      <trkpt lat="44.29835" lon="5.52529">
        <ele>1167</ele>
        <time>2016-05-15T10:30:24+02:00</time>
      </trkpt>
      <trkpt lat="44.29851" lon="5.52505">
        <ele>1170</ele>
        <time>2016-05-15T10:30:46+02:00</time>
      </trkpt>
      <trkpt lat="44.29862" lon="5.52476">
        <ele>1172</ele>
        <time>2016-05-15T10:31:11+02:00</time>
      </trkpt>
      <trkpt lat="44.29872" lon="5.52447">
        <ele>1173</ele>
        <time>2016-05-15T10:31:34+02:00</time>
      </trkpt>
      <trkpt lat="44.29882" lon="5.52418">
        <ele>1174</ele>
        <time>2016-05-15T10:32:06+02:00</time>
      </trkpt>
      <trkpt lat="44.29895" lon="5.52391">
        <ele>1175</ele>
        <time>2016-05-15T10:32:26+02:00</time>
      </trkpt>
      <trkpt lat="44.29909" lon="5.52365">
        <ele>1177</ele>
        <time>2016-05-15T10:32:50+02:00</time>
      </trkpt>
      <trkpt lat="44.2992" lon="5.52337">
        <ele>1178</ele>
        <time>2016-05-15T10:33:12+02:00</time>
      </trkpt>
      <trkpt lat="44.29935" lon="5.52311">
        <ele>1182</ele>
        <time>2016-05-15T10:33:35+02:00</time>
      </trkpt>
      <trkpt lat="44.29944" lon="5.52279">
        <ele>1182</ele>
        <time>2016-05-15T10:33:58+02:00</time>
      </trkpt>
      <trkpt lat="44.29953" lon="5.52249">
        <ele>1182</ele>
        <time>2016-05-15T10:34:16+02:00</time>
      </trkpt>
      <trkpt lat="44.29956" lon="5.52218">
        <ele>1179</ele>
        <time>2016-05-15T10:34:36+02:00</time>
      </trkpt>
      <trkpt lat="44.2997" lon="5.5219">
        <ele>1180</ele>
        <time>2016-05-15T10:34:58+02:00</time>
      </trkpt>
      <trkpt lat="44.29984" lon="5.52161">
        <ele>1181</ele>
        <time>2016-05-15T10:35:18+02:00</time>
      </trkpt>
      <trkpt lat="44.29991" lon="5.52131">
        <ele>1179</ele>
        <time>2016-05-15T10:35:38+02:00</time>
      </trkpt>
      <trkpt lat="44.30002" lon="5.52102">
        <ele>1180</ele>
        <time>2016-05-15T10:36:00+02:00</time>
      </trkpt>
      <trkpt lat="44.30011" lon="5.52073">
        <ele>1178</ele>
        <time>2016-05-15T10:36:19+02:00</time>
      </trkpt>
      <trkpt lat="44.3002" lon="5.52044">
        <ele>1174</ele>
        <time>2016-05-15T10:36:49+02:00</time>
      </trkpt>
      <trkpt lat="44.30028" lon="5.52015">
        <ele>1170</ele>
        <time>2016-05-15T10:37:15+02:00</time>
      </trkpt>
      <trkpt lat="44.30043" lon="5.5199">
        <ele>1168</ele>
        <time>2016-05-15T10:37:38+02:00</time>
      </trkpt>
      <trkpt lat="44.30063" lon="5.51973">
        <ele>1168</ele>
        <time>2016-05-15T10:38:48+02:00</time>
      </trkpt>
      <trkpt lat="44.3008" lon="5.51953">
        <ele>1166</ele>
        <time>2016-05-15T10:39:08+02:00</time>
      </trkpt>
      <trkpt lat="44.30098" lon="5.51932">
        <ele>1167</ele>
        <time>2016-05-15T10:39:29+02:00</time>
      </trkpt>
      <trkpt lat="44.30114" lon="5.51906">
        <ele>1166</ele>
        <time>2016-05-15T10:39:50+02:00</time>
      </trkpt>
      <trkpt lat="44.30133" lon="5.51886">
        <ele>1167</ele>
        <time>2016-05-15T10:40:12+02:00</time>
      </trkpt>
      <trkpt lat="44.30151" lon="5.51867">
        <ele>1167</ele>
        <time>2016-05-15T10:40:32+02:00</time>
      </trkpt>
      <trkpt lat="44.3017" lon="5.51848">
        <ele>1168</ele>
        <time>2016-05-15T10:40:52+02:00</time>
      </trkpt>
      <trkpt lat="44.30183" lon="5.5182">
        <ele>1166</ele>
        <time>2016-05-15T10:41:14+02:00</time>
      </trkpt>
      <trkpt lat="44.30201" lon="5.51798">
        <ele>1167</ele>
        <time>2016-05-15T10:41:34+02:00</time>
      </trkpt>
      <trkpt lat="44.3022" lon="5.51782">
        <ele>1171</ele>
        <time>2016-05-15T10:41:56+02:00</time>
      </trkpt>
      <trkpt lat="44.30237" lon="5.51756">
        <ele>1169</ele>
        <time>2016-05-15T10:42:18+02:00</time>
      </trkpt>
      <trkpt lat="44.30255" lon="5.51732">
        <ele>1171</ele>
        <time>2016-05-15T10:42:40+02:00</time>
      </trkpt>
      <trkpt lat="44.30273" lon="5.51708">
        <ele>1176</ele>
        <time>2016-05-15T10:43:04+02:00</time>
      </trkpt>
      <trkpt lat="44.3028" lon="5.51677">
        <ele>1173</ele>
        <time>2016-05-15T10:43:26+02:00</time>
      </trkpt>
      <trkpt lat="44.30285" lon="5.51645">
        <ele>1171</ele>
        <time>2016-05-15T10:43:48+02:00</time>
      </trkpt>
      <trkpt lat="44.30293" lon="5.51614">
        <ele>1172</ele>
        <time>2016-05-15T10:48:26+02:00</time>
      </trkpt>
      <trkpt lat="44.30295" lon="5.51582">
        <ele>1170</ele>
        <time>2016-05-15T10:48:50+02:00</time>
      </trkpt>
      <trkpt lat="44.30295" lon="5.51551">
        <ele>1167</ele>
        <time>2016-05-15T10:49:06+02:00</time>
      </trkpt>
      <trkpt lat="44.30293" lon="5.51519">
        <ele>1164</ele>
        <time>2016-05-15T10:49:27+02:00</time>
      </trkpt>
      <trkpt lat="44.30294" lon="5.51487">
        <ele>1163</ele>
        <time>2016-05-15T10:49:50+02:00</time>
      </trkpt>
      <trkpt lat="44.3029" lon="5.51455">
        <ele>1158</ele>
        <time>2016-05-15T10:50:10+02:00</time>
      </trkpt>
      <trkpt lat="44.30284" lon="5.51424">
        <ele>1153</ele>
        <time>2016-05-15T10:50:36+02:00</time>
      </trkpt>
      <trkpt lat="44.30295" lon="5.51396">
        <ele>1154</ele>
        <time>2016-05-15T10:51:00+02:00</time>
      </trkpt>
      <trkpt lat="44.30297" lon="5.51363">
        <ele>1151</ele>
        <time>2016-05-15T10:51:25+02:00</time>
      </trkpt>
      <trkpt lat="44.30303" lon="5.51331">
        <ele>1149</ele>
        <time>2016-05-15T10:51:48+02:00</time>
      </trkpt>
      <trkpt lat="44.30306" lon="5.51298">
        <ele>1147</ele>
        <time>2016-05-15T10:52:08+02:00</time>
      </trkpt>
      <trkpt lat="44.30307" lon="5.51267">
        <ele>1143</ele>
        <time>2016-05-15T10:52:31+02:00</time>
      </trkpt>
      <trkpt lat="44.30314" lon="5.51232">
        <ele>1141</ele>
      </trkpt>
      <trkpt lat="44.30322" lon="5.51195">
        <ele>1138</ele>
      </trkpt>
      <trkpt lat="44.30333" lon="5.51148">
        <ele>1136</ele>
      </trkpt>
      <trkpt lat="44.30343" lon="5.51106">
        <ele>1134</ele>
        <time>2016-05-15T10:54:24+02:00</time>
      </trkpt>
      <trkpt lat="44.30352" lon="5.51077">
        <ele>1133</ele>
        <time>2016-05-15T10:54:36+02:00</time>
      </trkpt>
      <trkpt lat="44.30363" lon="5.51049">
        <ele>1134</ele>
        <time>2016-05-15T10:54:55+02:00</time>
      </trkpt>
      <trkpt lat="44.30373" lon="5.51019">
        <ele>1135</ele>
        <time>2016-05-15T10:55:19+02:00</time>
      </trkpt>
      <trkpt lat="44.3038" lon="5.50988">
        <ele>1133</ele>
        <time>2016-05-15T10:55:38+02:00</time>
      </trkpt>
      <trkpt lat="44.30387" lon="5.50959">
        <ele>1130</ele>
        <time>2016-05-15T10:55:57+02:00</time>
      </trkpt>
      <trkpt lat="44.30395" lon="5.50928">
        <ele>1128</ele>
        <time>2016-05-15T10:56:18+02:00</time>
      </trkpt>
      <trkpt lat="44.30407" lon="5.509">
        <ele>1128</ele>
        <time>2016-05-15T10:56:38+02:00</time>
      </trkpt>
      <trkpt lat="44.30418" lon="5.50873">
        <ele>1128</ele>
        <time>2016-05-15T10:57:01+02:00</time>
      </trkpt>
      <trkpt lat="44.30435" lon="5.50846">
        <ele>1131</ele>
        <time>2016-05-15T10:57:22+02:00</time>
      </trkpt>
      <trkpt lat="44.30437" lon="5.50814">
        <ele>1127</ele>
        <time>2016-05-15T10:57:42+02:00</time>
      </trkpt>
      <trkpt lat="44.3044" lon="5.50783">
        <ele>1124</ele>
        <time>2016-05-15T10:58:10+02:00</time>
      </trkpt>
      <trkpt lat="44.30444" lon="5.5075">
        <ele>1121</ele>
        <time>2016-05-15T10:58:34+02:00</time>
      </trkpt>
      <trkpt lat="44.30459" lon="5.50725">
        <ele>1125</ele>
        <time>2016-05-15T10:58:54+02:00</time>
      </trkpt>
      <trkpt lat="44.30466" lon="5.50695">
        <ele>1124</ele>
        <time>2016-05-15T10:59:12+02:00</time>
      </trkpt>
      <trkpt lat="44.30475" lon="5.50663">
        <ele>1123</ele>
        <time>2016-05-15T10:59:36+02:00</time>
      </trkpt>
      <trkpt lat="44.30487" lon="5.50636">
        <ele>1123</ele>
        <time>2016-05-15T10:59:58+02:00</time>
      </trkpt>
      <trkpt lat="44.30496" lon="5.50605">
        <ele>1120</ele>
        <time>2016-05-15T11:00:18+02:00</time>
      </trkpt>
      <trkpt lat="44.30502" lon="5.50573">
        <ele>1116</ele>
        <time>2016-05-15T11:00:42+02:00</time>
      </trkpt>
      <trkpt lat="44.30509" lon="5.50543">
        <ele>1115</ele>
        <time>2016-05-15T11:01:01+02:00</time>
      </trkpt>
      <trkpt lat="44.30518" lon="5.50514">
        <ele>1114</ele>
        <time>2016-05-15T11:01:22+02:00</time>
      </trkpt>
      <trkpt lat="44.30523" lon="5.5048">
        <ele>1112</ele>
        <time>2016-05-15T11:01:44+02:00</time>
      </trkpt>
      <trkpt lat="44.30524" lon="5.50449">
        <ele>1109</ele>
        <time>2016-05-15T11:02:06+02:00</time>
      </trkpt>
      <trkpt lat="44.30525" lon="5.50415">
        <ele>1105</ele>
        <time>2016-05-15T11:02:28+02:00</time>
      </trkpt>
      <trkpt lat="44.30536" lon="5.50386">
        <ele>1106</ele>
        <time>2016-05-15T11:02:48+02:00</time>
      </trkpt>
      <trkpt lat="44.30551" lon="5.50359">
        <ele>1108</ele>
        <time>2016-05-15T11:03:14+02:00</time>
      </trkpt>
      <trkpt lat="44.30564" lon="5.50331">
        <ele>1109</ele>
        <time>2016-05-15T11:05:56+02:00</time>
      </trkpt>
      <trkpt lat="44.30571" lon="5.50298">
        <ele>1107</ele>
        <time>2016-05-15T11:06:16+02:00</time>
      </trkpt>
      <trkpt lat="44.30583" lon="5.5027">
        <ele>1107</ele>
        <time>2016-05-15T11:06:34+02:00</time>
      </trkpt>
      <trkpt lat="44.30591" lon="5.50238">
        <ele>1105</ele>
        <time>2016-05-15T11:06:56+02:00</time>
      </trkpt>
      <trkpt lat="44.30607" lon="5.50214">
        <ele>1105</ele>
        <time>2016-05-15T11:07:14+02:00</time>
      </trkpt>
      <trkpt lat="44.3062" lon="5.50187">
        <ele>1104</ele>
        <time>2016-05-15T11:07:32+02:00</time>
      </trkpt>
      <trkpt lat="44.3063" lon="5.50158">
        <ele>1101</ele>
        <time>2016-05-15T11:07:52+02:00</time>
      </trkpt>
      <trkpt lat="44.30637" lon="5.50126">
        <ele>1098</ele>
        <time>2016-05-15T11:08:12+02:00</time>
      </trkpt>
      <trkpt lat="44.30646" lon="5.50097">
        <ele>1097</ele>
        <time>2016-05-15T11:08:32+02:00</time>
      </trkpt>
      <trkpt lat="44.30654" lon="5.50064">
        <ele>1095</ele>
        <time>2016-05-15T11:08:54+02:00</time>
      </trkpt>
      <trkpt lat="44.30658" lon="5.50032">
        <ele>1092</ele>
        <time>2016-05-15T11:09:12+02:00</time>
      </trkpt>
      <trkpt lat="44.30664" lon="5.5">
        <ele>1090</ele>
        <time>2016-05-15T11:09:32+02:00</time>
      </trkpt>
      <trkpt lat="44.30669" lon="5.49966">
        <ele>1091</ele>
        <time>2016-05-15T11:09:52+02:00</time>
      </trkpt>
      <trkpt lat="44.30669" lon="5.49935">
        <ele>1090</ele>
        <time>2016-05-15T11:10:12+02:00</time>
      </trkpt>
      <trkpt lat="44.30672" lon="5.49902">
        <ele>1089</ele>
        <time>2016-05-15T11:10:42+02:00</time>
      </trkpt>
      <trkpt lat="44.30678" lon="5.49872">
        <ele>1090</ele>
        <time>2016-05-15T11:11:13+02:00</time>
      </trkpt>
      <trkpt lat="44.30678" lon="5.49837">
        <ele>1088</ele>
        <time>2016-05-15T11:11:36+02:00</time>
      </trkpt>
      <trkpt lat="44.30685" lon="5.49807">
        <ele>1088</ele>
        <time>2016-05-15T11:12:01+02:00</time>
      </trkpt>
      <trkpt lat="44.30689" lon="5.49775">
        <ele>1087</ele>
        <time>2016-05-15T11:12:25+02:00</time>
      </trkpt>
      <trkpt lat="44.30694" lon="5.49743">
        <ele>1087</ele>
        <time>2016-05-15T11:12:48+02:00</time>
      </trkpt>
      <trkpt lat="44.30709" lon="5.49719">
        <ele>1092</ele>
        <time>2016-05-15T11:13:12+02:00</time>
      </trkpt>
      <trkpt lat="44.30728" lon="5.497">
        <ele>1099</ele>
        <time>2016-05-15T11:13:38+02:00</time>
      </trkpt>
      <trkpt lat="44.30747" lon="5.49684">
        <ele>1107</ele>
        <time>2016-05-15T11:14:26+02:00</time>
      </trkpt>
      <trkpt lat="44.30774" lon="5.49723">
        <ele>1114</ele>
        <time>2016-05-15T11:17:08+02:00</time>
      </trkpt>
      <trkpt lat="44.30772" lon="5.49754">
        <ele>1115</ele>
        <time>2016-05-15T11:17:32+02:00</time>
      </trkpt>
      <trkpt lat="44.30772" lon="5.49787">
        <ele>1117</ele>
        <time>2016-05-15T11:17:54+02:00</time>
      </trkpt>
      <trkpt lat="44.3077" lon="5.49819">
        <ele>1119</ele>
        <time>2016-05-15T11:18:16+02:00</time>
      </trkpt>
      <trkpt lat="44.30763" lon="5.4985">
        <ele>1119</ele>
        <time>2016-05-15T11:18:38+02:00</time>
      </trkpt>
      <trkpt lat="44.30757" lon="5.4988">
        <ele>1120</ele>
        <time>2016-05-15T11:19:00+02:00</time>
      </trkpt>
      <trkpt lat="44.30758" lon="5.49912">
        <ele>1123</ele>
        <time>2016-05-15T11:19:26+02:00</time>
      </trkpt>
      <trkpt lat="44.30758" lon="5.49944">
        <ele>1125</ele>
        <time>2016-05-15T11:19:56+02:00</time>
      </trkpt>
      <trkpt lat="44.30779" lon="5.49928">
        <ele>1130</ele>
        <time>2016-05-15T11:21:00+02:00</time>
      </trkpt>
      <trkpt lat="44.30792" lon="5.49903">
        <ele>1132</ele>
        <time>2016-05-15T11:21:22+02:00</time>
      </trkpt>
      <trkpt lat="44.30805" lon="5.49876">
        <ele>1133</ele>
        <time>2016-05-15T11:21:46+02:00</time>
      </trkpt>
      <trkpt lat="44.30817" lon="5.49847">
        <ele>1134</ele>
        <time>2016-05-15T11:22:08+02:00</time>
      </trkpt>
      <trkpt lat="44.3083" lon="5.49822">
        <ele>1135</ele>
        <time>2016-05-15T11:22:30+02:00</time>
      </trkpt>
      <trkpt lat="44.30847" lon="5.49799">
        <ele>1137</ele>
        <time>2016-05-15T11:22:56+02:00</time>
      </trkpt>
      <trkpt lat="44.30868" lon="5.49785">
        <ele>1141</ele>
        <time>2016-05-15T11:23:26+02:00</time>
      </trkpt>
      <trkpt lat="44.30892" lon="5.49774">
        <ele>1146</ele>
        <time>2016-05-15T11:25:26+02:00</time>
      </trkpt>
      <trkpt lat="44.30915" lon="5.49769">
        <ele>1150</ele>
        <time>2016-05-15T11:27:10+02:00</time>
      </trkpt>
      <trkpt lat="44.30938" lon="5.49757">
        <ele>1154</ele>
        <time>2016-05-15T11:27:40+02:00</time>
      </trkpt>
      <trkpt lat="44.30959" lon="5.49741">
        <ele>1156</ele>
        <time>2016-05-15T11:28:10+02:00</time>
      </trkpt>
      <trkpt lat="44.3098" lon="5.49729">
        <ele>1159</ele>
        <time>2016-05-15T11:28:28+02:00</time>
      </trkpt>
      <trkpt lat="44.31001" lon="5.49715">
        <ele>1161</ele>
        <time>2016-05-15T11:28:54+02:00</time>
      </trkpt>
      <trkpt lat="44.31021" lon="5.49698">
        <ele>1163</ele>
        <time>2016-05-15T11:29:16+02:00</time>
      </trkpt>
      <trkpt lat="44.31039" lon="5.49679">
        <ele>1164</ele>
        <time>2016-05-15T11:29:35+02:00</time>
      </trkpt>
      <trkpt lat="44.31056" lon="5.49656">
        <ele>1163</ele>
        <time>2016-05-15T11:29:58+02:00</time>
      </trkpt>
      <trkpt lat="44.31069" lon="5.49627">
        <ele>1161</ele>
        <time>2016-05-15T11:30:22+02:00</time>
      </trkpt>
      <trkpt lat="44.31086" lon="5.49606">
        <ele>1161</ele>
        <time>2016-05-15T11:30:42+02:00</time>
      </trkpt>
      <trkpt lat="44.311" lon="5.4958">
        <ele>1161</ele>
        <time>2016-05-15T11:31:06+02:00</time>
      </trkpt>
      <trkpt lat="44.31118" lon="5.49557">
        <ele>1163</ele>
        <time>2016-05-15T11:31:28+02:00</time>
      </trkpt>
      <trkpt lat="44.31129" lon="5.49527">
        <ele>1161</ele>
        <time>2016-05-15T11:31:52+02:00</time>
      </trkpt>
      <trkpt lat="44.31142" lon="5.49501">
        <ele>1161</ele>
        <time>2016-05-15T11:32:14+02:00</time>
      </trkpt>
      <trkpt lat="44.31157" lon="5.49477">
        <ele>1163</ele>
        <time>2016-05-15T11:32:34+02:00</time>
      </trkpt>
      <trkpt lat="44.31172" lon="5.49452">
        <ele>1163</ele>
        <time>2016-05-15T11:33:00+02:00</time>
      </trkpt>
      <trkpt lat="44.31188" lon="5.49429">
        <ele>1166</ele>
        <time>2016-05-15T11:33:24+02:00</time>
      </trkpt>
      <trkpt lat="44.31201" lon="5.49402">
        <ele>1166</ele>
        <time>2016-05-15T11:33:48+02:00</time>
      </trkpt>
      <trkpt lat="44.31211" lon="5.49373">
        <ele>1166</ele>
        <time>2016-05-15T11:34:08+02:00</time>
      </trkpt>
      <trkpt lat="44.31218" lon="5.49342">
        <ele>1165</ele>
        <time>2016-05-15T11:34:28+02:00</time>
      </trkpt>
      <trkpt lat="44.31232" lon="5.49317">
        <ele>1167</ele>
        <time>2016-05-15T11:34:53+02:00</time>
      </trkpt>
      <trkpt lat="44.31243" lon="5.49289">
        <ele>1168</ele>
        <time>2016-05-15T11:35:18+02:00</time>
      </trkpt>
      <trkpt lat="44.31258" lon="5.49262">
        <ele>1171</ele>
        <time>2016-05-15T11:35:42+02:00</time>
      </trkpt>
      <trkpt lat="44.31271" lon="5.49233">
        <ele>1174</ele>
        <time>2016-05-15T11:36:06+02:00</time>
      </trkpt>
      <trkpt lat="44.31286" lon="5.49208">
        <ele>1178</ele>
        <time>2016-05-15T11:36:30+02:00</time>
      </trkpt>
      <trkpt lat="44.3129" lon="5.49241">
        <ele>1183</ele>
        <time>2016-05-15T11:36:58+02:00</time>
      </trkpt>
      <trkpt lat="44.31288" lon="5.49272">
        <ele>1186</ele>
        <time>2016-05-15T11:37:24+02:00</time>
      </trkpt>
      <trkpt lat="44.31285" lon="5.49305">
        <ele>1189</ele>
        <time>2016-05-15T11:37:50+02:00</time>
      </trkpt>
      <trkpt lat="44.31283" lon="5.49338">
        <ele>1192</ele>
        <time>2016-05-15T11:38:18+02:00</time>
      </trkpt>
      <trkpt lat="44.31279" lon="5.49371">
        <ele>1195</ele>
        <time>2016-05-15T11:38:46+02:00</time>
      </trkpt>
      <trkpt lat="44.31275" lon="5.49403">
        <ele>1198</ele>
        <time>2016-05-15T11:39:12+02:00</time>
      </trkpt>
      <trkpt lat="44.31273" lon="5.49436">
        <ele>1203</ele>
        <time>2016-05-15T11:39:40+02:00</time>
      </trkpt>
      <trkpt lat="44.31269" lon="5.49468">
        <ele>1206</ele>
        <time>2016-05-15T11:40:08+02:00</time>
      </trkpt>
      <trkpt lat="44.31264" lon="5.495">
        <ele>1209</ele>
        <time>2016-05-15T11:40:36+02:00</time>
      </trkpt>
      <trkpt lat="44.31255" lon="5.4953">
        <ele>1209</ele>
        <time>2016-05-15T11:41:04+02:00</time>
      </trkpt>
      <trkpt lat="44.31246" lon="5.49559">
        <ele>1210</ele>
        <time>2016-05-15T11:41:28+02:00</time>
      </trkpt>
      <trkpt lat="44.31237" lon="5.49589">
        <ele>1211</ele>
        <time>2016-05-15T11:41:52+02:00</time>
      </trkpt>
      <trkpt lat="44.31232" lon="5.4962">
        <ele>1215</ele>
        <time>2016-05-15T11:49:35+02:00</time>
      </trkpt>
      <trkpt lat="44.31228" lon="5.49652">
        <ele>1220</ele>
        <time>2016-05-15T11:50:02+02:00</time>
      </trkpt>
      <trkpt lat="44.31223" lon="5.49683">
        <ele>1224</ele>
        <time>2016-05-15T11:50:25+02:00</time>
      </trkpt>
      <trkpt lat="44.31214" lon="5.49713">
        <ele>1226</ele>
        <time>2016-05-15T11:50:49+02:00</time>
      </trkpt>
      <trkpt lat="44.31207" lon="5.49745">
        <ele>1230</ele>
        <time>2016-05-15T11:51:18+02:00</time>
      </trkpt>
      <trkpt lat="44.31198" lon="5.49775">
        <ele>1234</ele>
        <time>2016-05-15T11:51:48+02:00</time>
      </trkpt>
      <trkpt lat="44.31188" lon="5.49803">
        <ele>1237</ele>
        <time>2016-05-15T11:52:22+02:00</time>
      </trkpt>
      <trkpt lat="44.31179" lon="5.49832">
        <ele>1241</ele>
        <time>2016-05-15T11:52:54+02:00</time>
      </trkpt>
      <trkpt lat="44.31169" lon="5.49862">
        <ele>1247</ele>
        <time>2016-05-15T11:53:24+02:00</time>
      </trkpt>
      <trkpt lat="44.31156" lon="5.4989">
        <ele>1251</ele>
        <time>2016-05-15T11:53:56+02:00</time>
      </trkpt>
      <trkpt lat="44.31143" lon="5.49915">
        <ele>1253</ele>
        <time>2016-05-15T11:54:26+02:00</time>
      </trkpt>
      <trkpt lat="44.31132" lon="5.49944">
        <ele>1257</ele>
        <time>2016-05-15T11:55:00+02:00</time>
      </trkpt>
      <trkpt lat="44.31123" lon="5.49975">
        <ele>1263</ele>
        <time>2016-05-15T11:55:34+02:00</time>
      </trkpt>
      <trkpt lat="44.31112" lon="5.50004">
        <ele>1267</ele>
        <time>2016-05-15T11:56:04+02:00</time>
      </trkpt>
      <trkpt lat="44.31099" lon="5.5003">
        <ele>1269</ele>
        <time>2016-05-15T11:56:32+02:00</time>
      </trkpt>
      <trkpt lat="44.31121" lon="5.50018">
        <ele>1274</ele>
        <time>2016-05-15T11:57:18+02:00</time>
      </trkpt>
      <trkpt lat="44.31113" lon="5.50047">
        <ele>1279</ele>
        <time>2016-05-15T12:04:49+02:00</time>
      </trkpt>
      <trkpt lat="44.31103" lon="5.50078">
        <ele>1283</ele>
        <time>2016-05-15T12:05:26+02:00</time>
      </trkpt>
      <trkpt lat="44.31096" lon="5.5011">
        <ele>1289</ele>
        <time>2016-05-15T12:05:52+02:00</time>
      </trkpt>
      <trkpt lat="44.31087" lon="5.5014">
        <ele>1294</ele>
        <time>2016-05-15T12:06:24+02:00</time>
      </trkpt>
      <trkpt lat="44.31077" lon="5.50168">
        <ele>1298</ele>
        <time>2016-05-15T12:06:54+02:00</time>
      </trkpt>
      <trkpt lat="44.3107" lon="5.502">
        <ele>1301</ele>
        <time>2016-05-15T12:07:22+02:00</time>
      </trkpt>
      <trkpt lat="44.31058" lon="5.50228">
        <ele>1303</ele>
        <time>2016-05-15T12:07:48+02:00</time>
      </trkpt>
      <trkpt lat="44.31049" lon="5.50258">
        <ele>1305</ele>
        <time>2016-05-15T12:08:12+02:00</time>
      </trkpt>
      <trkpt lat="44.31039" lon="5.50288">
        <ele>1308</ele>
        <time>2016-05-15T12:08:40+02:00</time>
      </trkpt>
      <trkpt lat="44.3103" lon="5.50317">
        <ele>1312</ele>
        <time>2016-05-15T12:09:06+02:00</time>
      </trkpt>
      <trkpt lat="44.31022" lon="5.50347">
        <ele>1316</ele>
        <time>2016-05-15T12:09:34+02:00</time>
      </trkpt>
      <trkpt lat="44.31015" lon="5.50379">
        <ele>1321</ele>
        <time>2016-05-15T12:10:04+02:00</time>
      </trkpt>
      <trkpt lat="44.31012" lon="5.5041">
        <ele>1327</ele>
        <time>2016-05-15T12:10:30+02:00</time>
      </trkpt>
      <trkpt lat="44.31008" lon="5.50442">
        <ele>1331</ele>
        <time>2016-05-15T12:11:00+02:00</time>
      </trkpt>
      <trkpt lat="44.31006" lon="5.50474">
        <ele>1336</ele>
        <time>2016-05-15T12:11:52+02:00</time>
      </trkpt>
      <trkpt lat="44.3102" lon="5.50501">
        <ele>1340</ele>
        <time>2016-05-15T12:12:16+02:00</time>
      </trkpt>
      <trkpt lat="44.31012" lon="5.50533">
        <ele>1341</ele>
        <time>2016-05-15T12:13:28+02:00</time>
      </trkpt>
      <trkpt lat="44.30999" lon="5.50548">
        <ele>1341</ele>
        <time>2016-05-15T12:17:30+02:00</time>
      </trkpt>
      <trkpt lat="44.31007" lon="5.5058">
        <ele>1343</ele>
        <time>2016-05-15T12:20:28+02:00</time>
      </trkpt>
      <trkpt lat="44.31005" lon="5.50613">
        <ele>1341</ele>
        <time>2016-05-15T12:20:50+02:00</time>
      </trkpt>
      <trkpt lat="44.30997" lon="5.50642">
        <ele>1339</ele>
        <time>2016-05-15T12:21:26+02:00</time>
      </trkpt>
      <trkpt lat="44.30981" lon="5.50665">
        <ele>1336</ele>
        <time>2016-05-15T12:21:45+02:00</time>
      </trkpt>
      <trkpt lat="44.30972" lon="5.50695">
        <ele>1335</ele>
        <time>2016-05-15T12:22:07+02:00</time>
      </trkpt>
      <trkpt lat="44.30955" lon="5.50715">
        <ele>1334</ele>
        <time>2016-05-15T12:22:26+02:00</time>
      </trkpt>
      <trkpt lat="44.30938" lon="5.50737">
        <ele>1333</ele>
        <time>2016-05-15T12:22:44+02:00</time>
      </trkpt>
      <trkpt lat="44.30923" lon="5.50761">
        <ele>1333</ele>
        <time>2016-05-15T12:23:06+02:00</time>
      </trkpt>
      <trkpt lat="44.30916" lon="5.50792">
        <ele>1333</ele>
        <time>2016-05-15T12:23:32+02:00</time>
      </trkpt>
      <trkpt lat="44.30916" lon="5.50824">
        <ele>1335</ele>
        <time>2016-05-15T12:23:54+02:00</time>
      </trkpt>
      <trkpt lat="44.3091" lon="5.50854">
        <ele>1336</ele>
        <time>2016-05-15T12:24:14+02:00</time>
      </trkpt>
      <trkpt lat="44.30895" lon="5.50879">
        <ele>1337</ele>
        <time>2016-05-15T12:24:34+02:00</time>
      </trkpt>
      <trkpt lat="44.30883" lon="5.50907">
        <ele>1340</ele>
        <time>2016-05-15T12:24:55+02:00</time>
      </trkpt>
      <trkpt lat="44.30871" lon="5.50935">
        <ele>1341</ele>
        <time>2016-05-15T12:25:17+02:00</time>
      </trkpt>
      <trkpt lat="44.30851" lon="5.50955">
        <ele>1342</ele>
        <time>2016-05-15T12:25:38+02:00</time>
      </trkpt>
      <trkpt lat="44.3083" lon="5.50973">
        <ele>1342</ele>
        <time>2016-05-15T12:26:00+02:00</time>
      </trkpt>
      <trkpt lat="44.30814" lon="5.50998">
        <ele>1341</ele>
        <time>2016-05-15T12:26:23+02:00</time>
      </trkpt>
      <trkpt lat="44.30801" lon="5.51025">
        <ele>1341</ele>
        <time>2016-05-15T12:26:46+02:00</time>
      </trkpt>
      <trkpt lat="44.3079" lon="5.51052">
        <ele>1342</ele>
        <time>2016-05-15T12:27:08+02:00</time>
      </trkpt>
      <trkpt lat="44.30781" lon="5.51082">
        <ele>1343</ele>
        <time>2016-05-15T12:27:28+02:00</time>
      </trkpt>
      <trkpt lat="44.30772" lon="5.51113">
        <ele>1345</ele>
        <time>2016-05-15T12:27:50+02:00</time>
      </trkpt>
      <trkpt lat="44.30767" lon="5.51144">
        <ele>1346</ele>
        <time>2016-05-15T12:28:10+02:00</time>
      </trkpt>
      <trkpt lat="44.30757" lon="5.51173">
        <ele>1348</ele>
        <time>2016-05-15T12:28:29+02:00</time>
      </trkpt>
      <trkpt lat="44.30746" lon="5.512">
        <ele>1347</ele>
        <time>2016-05-15T12:28:50+02:00</time>
      </trkpt>
      <trkpt lat="44.30734" lon="5.51228">
        <ele>1345</ele>
        <time>2016-05-15T12:29:10+02:00</time>
      </trkpt>
      <trkpt lat="44.30725" lon="5.51261">
        <ele>1345</ele>
        <time>2016-05-15T12:29:32+02:00</time>
      </trkpt>
      <trkpt lat="44.30712" lon="5.51288">
        <ele>1345</ele>
        <time>2016-05-15T12:29:54+02:00</time>
      </trkpt>
      <trkpt lat="44.30698" lon="5.51314">
        <ele>1345</ele>
        <time>2016-05-15T12:30:14+02:00</time>
      </trkpt>
      <trkpt lat="44.30687" lon="5.51343">
        <ele>1347</ele>
        <time>2016-05-15T12:30:36+02:00</time>
      </trkpt>
      <trkpt lat="44.30683" lon="5.51377">
        <ele>1352</ele>
        <time>2016-05-15T12:31:01+02:00</time>
      </trkpt>
      <trkpt lat="44.30675" lon="5.51409">
        <ele>1356</ele>
        <time>2016-05-15T12:31:26+02:00</time>
      </trkpt>
      <trkpt lat="44.30662" lon="5.51436">
        <ele>1357</ele>
        <time>2016-05-15T12:36:53+02:00</time>
      </trkpt>
      <trkpt lat="44.30675" lon="5.51466">
        <ele>1365</ele>
        <time>2016-05-15T12:37:45+02:00</time>
      </trkpt>
      <trkpt lat="44.30665" lon="5.51494">
        <ele>1369</ele>
        <time>2016-05-15T12:38:14+02:00</time>
      </trkpt>
      <trkpt lat="44.30658" lon="5.51525">
        <ele>1367</ele>
        <time>2016-05-15T12:39:53+02:00</time>
      </trkpt>
      <trkpt lat="44.30639" lon="5.51543">
        <ele>1361</ele>
        <time>2016-05-15T12:44:58+02:00</time>
      </trkpt>
      <trkpt lat="44.30636" lon="5.51575">
        <ele>1362</ele>
        <time>2016-05-15T12:45:56+02:00</time>
      </trkpt>
      <trkpt lat="44.30626" lon="5.51606">
        <ele>1359</ele>
        <time>2016-05-15T12:46:20+02:00</time>
      </trkpt>
      <trkpt lat="44.30618" lon="5.51637">
        <ele>1357</ele>
        <time>2016-05-15T12:46:46+02:00</time>
      </trkpt>
      <trkpt lat="44.30616" lon="5.51671">
        <ele>1356</ele>
        <time>2016-05-15T12:47:06+02:00</time>
      </trkpt>
      <trkpt lat="44.30609" lon="5.51702">
        <ele>1355</ele>
        <time>2016-05-15T12:47:26+02:00</time>
      </trkpt>
      <trkpt lat="44.30604" lon="5.51734">
        <ele>1355</ele>
        <time>2016-05-15T12:47:48+02:00</time>
      </trkpt>
      <trkpt lat="44.30584" lon="5.51751">
        <ele>1360</ele>
        <time>2016-05-15T12:48:20+02:00</time>
      </trkpt>
      <trkpt lat="44.3058" lon="5.51783">
        <ele>1358</ele>
        <time>2016-05-15T12:48:42+02:00</time>
      </trkpt>
      <trkpt lat="44.30568" lon="5.51809">
        <ele>1356</ele>
        <time>2016-05-15T12:49:00+02:00</time>
      </trkpt>
      <trkpt lat="44.30554" lon="5.51835">
        <ele>1355</ele>
        <time>2016-05-15T12:49:19+02:00</time>
      </trkpt>
      <trkpt lat="44.30542" lon="5.51861">
        <ele>1354</ele>
        <time>2016-05-15T12:49:40+02:00</time>
      </trkpt>
      <trkpt lat="44.30526" lon="5.51886">
        <ele>1356</ele>
        <time>2016-05-15T12:50:02+02:00</time>
      </trkpt>
      <trkpt lat="44.30519" lon="5.51917">
        <ele>1360</ele>
        <time>2016-05-15T12:50:25+02:00</time>
      </trkpt>
      <trkpt lat="44.30513" lon="5.51948">
        <ele>1363</ele>
        <time>2016-05-15T12:50:48+02:00</time>
      </trkpt>
      <trkpt lat="44.30506" lon="5.51979">
        <ele>1368</ele>
        <time>2016-05-15T12:51:09+02:00</time>
      </trkpt>
      <trkpt lat="44.30493" lon="5.52008">
        <ele>1372</ele>
        <time>2016-05-15T12:51:30+02:00</time>
      </trkpt>
      <trkpt lat="44.30486" lon="5.5204">
        <ele>1373</ele>
        <time>2016-05-15T12:51:59+02:00</time>
      </trkpt>
      <trkpt lat="44.30479" lon="5.5207">
        <ele>1375</ele>
        <time>2016-05-15T12:52:24+02:00</time>
      </trkpt>
      <trkpt lat="44.30464" lon="5.52094">
        <ele>1376</ele>
        <time>2016-05-15T12:52:50+02:00</time>
      </trkpt>
      <trkpt lat="44.30451" lon="5.5212">
        <ele>1379</ele>
        <time>2016-05-15T12:55:02+02:00</time>
      </trkpt>
      <trkpt lat="44.30439" lon="5.52148">
        <ele>1383</ele>
        <time>2016-05-15T12:55:50+02:00</time>
      </trkpt>
      <trkpt lat="44.30435" lon="5.5218">
        <ele>1387</ele>
        <time>2016-05-15T12:56:20+02:00</time>
      </trkpt>
      <trkpt lat="44.30424" lon="5.52208">
        <ele>1391</ele>
        <time>2016-05-15T12:56:45+02:00</time>
      </trkpt>
      <trkpt lat="44.30419" lon="5.52239">
        <ele>1395</ele>
        <time>2016-05-15T12:57:34+02:00</time>
      </trkpt>
      <trkpt lat="44.30411" lon="5.5227">
        <ele>1395</ele>
        <time>2016-05-15T12:58:10+02:00</time>
      </trkpt>
      <trkpt lat="44.30418" lon="5.52301">
        <ele>1395</ele>
        <time>2016-05-15T12:59:06+02:00</time>
      </trkpt>
      <trkpt lat="44.30402" lon="5.52326">
        <ele>1393</ele>
        <time>2016-05-15T13:05:20+02:00</time>
      </trkpt>
      <trkpt lat="44.30391" lon="5.52355">
        <ele>1391</ele>
        <time>2016-05-15T13:06:10+02:00</time>
      </trkpt>
      <trkpt lat="44.30381" lon="5.52385">
        <ele>1389</ele>
        <time>2016-05-15T13:06:34+02:00</time>
      </trkpt>
      <trkpt lat="44.30368" lon="5.52413">
        <ele>1391</ele>
        <time>2016-05-15T13:06:54+02:00</time>
      </trkpt>
      <trkpt lat="44.30357" lon="5.52442">
        <ele>1392</ele>
        <time>2016-05-15T13:07:14+02:00</time>
      </trkpt>
      <trkpt lat="44.30347" lon="5.52474">
        <ele>1394</ele>
        <time>2016-05-15T13:07:34+02:00</time>
      </trkpt>
      <trkpt lat="44.30341" lon="5.52505">
        <ele>1395</ele>
        <time>2016-05-15T13:07:54+02:00</time>
      </trkpt>
      <trkpt lat="44.30334" lon="5.52535">
        <ele>1396</ele>
        <time>2016-05-15T13:08:22+02:00</time>
      </trkpt>
      <trkpt lat="44.30318" lon="5.52562">
        <ele>1392</ele>
        <time>2016-05-15T13:08:44+02:00</time>
      </trkpt>
      <trkpt lat="44.30304" lon="5.5259">
        <ele>1390</ele>
        <time>2016-05-15T13:09:06+02:00</time>
      </trkpt>
      <trkpt lat="44.30294" lon="5.52619">
        <ele>1389</ele>
        <time>2016-05-15T13:09:28+02:00</time>
      </trkpt>
      <trkpt lat="44.30278" lon="5.52642">
        <ele>1391</ele>
        <time>2016-05-15T13:11:38+02:00</time>
      </trkpt>
      <trkpt lat="44.30266" lon="5.5267">
        <ele>1394</ele>
        <time>2016-05-15T13:12:02+02:00</time>
      </trkpt>
      <trkpt lat="44.30248" lon="5.52711">
        <ele>1401</ele>
        <time>2016-05-15T14:20:18+02:00</time>
      </trkpt>
      <trkpt lat="44.30237" lon="5.5274">
        <ele>1402</ele>
        <time>2016-05-15T14:20:38+02:00</time>
      </trkpt>
      <trkpt lat="44.30229" lon="5.5277">
        <ele>1402</ele>
        <time>2016-05-15T14:20:54+02:00</time>
      </trkpt>
      <trkpt lat="44.30213" lon="5.52795">
        <ele>1402</ele>
        <time>2016-05-15T14:21:20+02:00</time>
      </trkpt>
      <trkpt lat="44.30196" lon="5.52818">
        <ele>1403</ele>
        <time>2016-05-15T14:21:44+02:00</time>
      </trkpt>
      <trkpt lat="44.30182" lon="5.52844">
        <ele>1406</ele>
        <time>2016-05-15T14:22:06+02:00</time>
      </trkpt>
      <trkpt lat="44.30161" lon="5.52861">
        <ele>1405</ele>
        <time>2016-05-15T14:23:44+02:00</time>
      </trkpt>
      <trkpt lat="44.30144" lon="5.52883">
        <ele>1401</ele>
        <time>2016-05-15T14:24:47+02:00</time>
      </trkpt>
      <trkpt lat="44.30138" lon="5.52915">
        <ele>1404</ele>
        <time>2016-05-15T14:25:26+02:00</time>
      </trkpt>
      <trkpt lat="44.30133" lon="5.52948">
        <ele>1406</ele>
        <time>2016-05-15T14:25:50+02:00</time>
      </trkpt>
      <trkpt lat="44.30125" lon="5.5298">
        <ele>1408</ele>
        <time>2016-05-15T14:26:12+02:00</time>
      </trkpt>
      <trkpt lat="44.30124" lon="5.53012">
        <ele>1411</ele>
        <time>2016-05-15T14:26:44+02:00</time>
      </trkpt>
      <trkpt lat="44.30119" lon="5.53044">
        <ele>1413</ele>
        <time>2016-05-15T14:27:08+02:00</time>
      </trkpt>
      <trkpt lat="44.30112" lon="5.53075">
        <ele>1415</ele>
        <time>2016-05-15T14:27:34+02:00</time>
      </trkpt>
      <trkpt lat="44.30097" lon="5.53099">
        <ele>1415</ele>
        <time>2016-05-15T14:27:54+02:00</time>
      </trkpt>
      <trkpt lat="44.30088" lon="5.53129">
        <ele>1417</ele>
      </trkpt>
      <trkpt lat="44.3008" lon="5.53152">
        <ele>1418</ele>
      </trkpt>
      <trkpt lat="44.30072" lon="5.53175">
        <ele>1417</ele>
      </trkpt>
      <trkpt lat="44.30064" lon="5.53196">
        <ele>1415</ele>
        <time>2016-05-15T14:29:48+02:00</time>
      </trkpt>
      <trkpt lat="44.30052" lon="5.53225">
        <ele>1413</ele>
        <time>2016-05-15T14:30:10+02:00</time>
      </trkpt>
      <trkpt lat="44.30035" lon="5.53249">
        <ele>1411</ele>
        <time>2016-05-15T14:30:32+02:00</time>
      </trkpt>
      <trkpt lat="44.3002" lon="5.53274">
        <ele>1408</ele>
        <time>2016-05-15T14:30:52+02:00</time>
      </trkpt>
      <trkpt lat="44.30008" lon="5.53302">
        <ele>1407</ele>
        <time>2016-05-15T14:31:12+02:00</time>
      </trkpt>
      <trkpt lat="44.30018" lon="5.53333">
        <ele>1410</ele>
        <time>2016-05-15T14:31:44+02:00</time>
      </trkpt>
      <trkpt lat="44.30038" lon="5.53351">
        <ele>1411</ele>
        <time>2016-05-15T14:32:06+02:00</time>
      </trkpt>
      <trkpt lat="44.30051" lon="5.53377">
        <ele>1411</ele>
        <time>2016-05-15T14:32:30+02:00</time>
      </trkpt>
      <trkpt lat="44.30075" lon="5.53382">
        <ele>1413</ele>
        <time>2016-05-15T14:32:48+02:00</time>
      </trkpt>
      <trkpt lat="44.30095" lon="5.53398">
        <ele>1412</ele>
        <time>2016-05-15T14:33:10+02:00</time>
      </trkpt>
      <trkpt lat="44.30088" lon="5.53429">
        <ele>1410</ele>
        <time>2016-05-15T14:33:30+02:00</time>
      </trkpt>
      <trkpt lat="44.30076" lon="5.53456">
        <ele>1408</ele>
        <time>2016-05-15T14:33:48+02:00</time>
      </trkpt>
      <trkpt lat="44.3006" lon="5.53482">
        <ele>1405</ele>
        <time>2016-05-15T14:34:10+02:00</time>
      </trkpt>
      <trkpt lat="44.30044" lon="5.53506">
        <ele>1402</ele>
        <time>2016-05-15T14:34:30+02:00</time>
      </trkpt>
      <trkpt lat="44.30023" lon="5.53519">
        <ele>1399</ele>
        <time>2016-05-15T14:34:53+02:00</time>
      </trkpt>
      <trkpt lat="44.30017" lon="5.5355">
        <ele>1398</ele>
        <time>2016-05-15T14:35:18+02:00</time>
      </trkpt>
      <trkpt lat="44.30015" lon="5.53582">
        <ele>1397</ele>
        <time>2016-05-15T14:35:34+02:00</time>
      </trkpt>
      <trkpt lat="44.30027" lon="5.5361">
        <ele>1391</ele>
        <time>2016-05-15T14:37:34+02:00</time>
      </trkpt>
      <trkpt lat="44.30013" lon="5.53635">
        <ele>1390</ele>
        <time>2016-05-15T14:37:52+02:00</time>
      </trkpt>
      <trkpt lat="44.29993" lon="5.53655">
        <ele>1390</ele>
        <time>2016-05-15T14:38:08+02:00</time>
      </trkpt>
      <trkpt lat="44.29983" lon="5.53685">
        <ele>1384</ele>
        <time>2016-05-15T14:38:38+02:00</time>
      </trkpt>
      <trkpt lat="44.29971" lon="5.53713">
        <ele>1379</ele>
        <time>2016-05-15T14:39:00+02:00</time>
      </trkpt>
      <trkpt lat="44.29957" lon="5.53738">
        <ele>1376</ele>
        <time>2016-05-15T14:39:26+02:00</time>
      </trkpt>
      <trkpt lat="44.29944" lon="5.53764">
        <ele>1374</ele>
        <time>2016-05-15T14:39:46+02:00</time>
      </trkpt>
      <trkpt lat="44.29932" lon="5.53791">
        <ele>1374</ele>
        <time>2016-05-15T14:40:10+02:00</time>
      </trkpt>
      <trkpt lat="44.29914" lon="5.53814">
        <ele>1378</ele>
        <time>2016-05-15T14:40:36+02:00</time>
      </trkpt>
      <trkpt lat="44.29915" lon="5.53848">
        <ele>1375</ele>
        <time>2016-05-15T14:41:00+02:00</time>
      </trkpt>
      <trkpt lat="44.2989" lon="5.53856">
        <ele>1374</ele>
        <time>2016-05-15T14:41:26+02:00</time>
      </trkpt>
      <trkpt lat="44.29871" lon="5.53875">
        <ele>1373</ele>
        <time>2016-05-15T14:44:32+02:00</time>
      </trkpt>
      <trkpt lat="44.29855" lon="5.53897">
        <ele>1374</ele>
        <time>2016-05-15T14:44:52+02:00</time>
      </trkpt>
      <trkpt lat="44.29849" lon="5.53928">
        <ele>1377</ele>
        <time>2016-05-15T14:45:22+02:00</time>
      </trkpt>
      <trkpt lat="44.29852" lon="5.53959">
        <ele>1380</ele>
        <time>2016-05-15T14:45:46+02:00</time>
      </trkpt>
      <trkpt lat="44.29852" lon="5.53991">
        <ele>1383</ele>
        <time>2016-05-15T14:46:16+02:00</time>
      </trkpt>
      <trkpt lat="44.29859" lon="5.54024">
        <ele>1382</ele>
        <time>2016-05-15T14:46:40+02:00</time>
      </trkpt>
      <trkpt lat="44.29852" lon="5.54055">
        <ele>1386</ele>
        <time>2016-05-15T14:47:02+02:00</time>
      </trkpt>
      <trkpt lat="44.29841" lon="5.54083">
        <ele>1391</ele>
        <time>2016-05-15T14:47:26+02:00</time>
      </trkpt>
      <trkpt lat="44.29833" lon="5.54112">
        <ele>1397</ele>
        <time>2016-05-15T14:47:52+02:00</time>
      </trkpt>
      <trkpt lat="44.29828" lon="5.54145">
        <ele>1400</ele>
        <time>2016-05-15T14:48:16+02:00</time>
      </trkpt>
      <trkpt lat="44.29822" lon="5.54176">
        <ele>1404</ele>
        <time>2016-05-15T14:48:52+02:00</time>
      </trkpt>
      <trkpt lat="44.29817" lon="5.54208">
        <ele>1408</ele>
        <time>2016-05-15T14:49:24+02:00</time>
      </trkpt>
      <trkpt lat="44.29815" lon="5.5424">
        <ele>1411</ele>
        <time>2016-05-15T14:49:52+02:00</time>
      </trkpt>
      <trkpt lat="44.298" lon="5.54263">
        <ele>1415</ele>
        <time>2016-05-15T14:50:24+02:00</time>
      </trkpt>
      <trkpt lat="44.2978" lon="5.5428">
        <ele>1419</ele>
        <time>2016-05-15T14:50:55+02:00</time>
      </trkpt>
      <trkpt lat="44.29759" lon="5.54292">
        <ele>1425</ele>
        <time>2016-05-15T14:51:18+02:00</time>
      </trkpt>
      <trkpt lat="44.29724" lon="5.5431">
        <ele>1428</ele>
        <time>2016-05-15T14:58:38+02:00</time>
      </trkpt>
      <trkpt lat="44.29706" lon="5.54332">
        <ele>1430</ele>
        <time>2016-05-15T14:59:12+02:00</time>
      </trkpt>
      <trkpt lat="44.29701" lon="5.54362">
        <ele>1432</ele>
        <time>2016-05-15T14:59:45+02:00</time>
      </trkpt>
      <trkpt lat="44.29686" lon="5.54387">
        <ele>1436</ele>
        <time>2016-05-15T15:00:14+02:00</time>
      </trkpt>
      <trkpt lat="44.29678" lon="5.54418">
        <ele>1440</ele>
        <time>2016-05-15T15:00:46+02:00</time>
      </trkpt>
      <trkpt lat="44.2967" lon="5.5445">
        <ele>1442</ele>
        <time>2016-05-15T15:01:12+02:00</time>
      </trkpt>
      <trkpt lat="44.29659" lon="5.54477">
        <ele>1444</ele>
        <time>2016-05-15T15:01:34+02:00</time>
      </trkpt>
      <trkpt lat="44.29643" lon="5.545">
        <ele>1445</ele>
        <time>2016-05-15T15:02:04+02:00</time>
      </trkpt>
      <trkpt lat="44.29628" lon="5.54525">
        <ele>1444</ele>
        <time>2016-05-15T15:02:30+02:00</time>
      </trkpt>
      <trkpt lat="44.29598" lon="5.54571">
        <ele>1449</ele>
        <time>2016-05-15T15:06:14+02:00</time>
      </trkpt>
      <trkpt lat="44.29574" lon="5.54574">
        <ele>1451</ele>
        <time>2016-05-15T15:06:34+02:00</time>
      </trkpt>
      <trkpt lat="44.29552" lon="5.54587">
        <ele>1447</ele>
        <time>2016-05-15T15:06:56+02:00</time>
      </trkpt>
      <trkpt lat="44.29546" lon="5.54619">
        <ele>1443</ele>
        <time>2016-05-15T15:07:36+02:00</time>
      </trkpt>
      <trkpt lat="44.29523" lon="5.5464">
        <ele>1441</ele>
        <time>2016-05-15T15:10:04+02:00</time>
      </trkpt>
      <trkpt lat="44.29505" lon="5.54662">
        <ele>1441</ele>
        <time>2016-05-15T15:10:26+02:00</time>
      </trkpt>
      <trkpt lat="44.29483" lon="5.5467">
        <ele>1433</ele>
        <time>2016-05-15T15:11:30+02:00</time>
      </trkpt>
      <trkpt lat="44.2946" lon="5.54667">
        <ele>1426</ele>
        <time>2016-05-15T15:12:30+02:00</time>
      </trkpt>
      <trkpt lat="44.29438" lon="5.54662">
        <ele>1417</ele>
        <time>2016-05-15T15:13:46+02:00</time>
      </trkpt>
      <trkpt lat="44.29416" lon="5.54673">
        <ele>1407</ele>
        <time>2016-05-15T15:19:22+02:00</time>
      </trkpt>
      <trkpt lat="44.29392" lon="5.54675">
        <ele>1399</ele>
        <time>2016-05-15T15:19:56+02:00</time>
      </trkpt>
      <trkpt lat="44.29369" lon="5.54684">
        <ele>1390</ele>
        <time>2016-05-15T15:20:20+02:00</time>
      </trkpt>
      <trkpt lat="44.29348" lon="5.54694">
        <ele>1380</ele>
        <time>2016-05-15T15:20:50+02:00</time>
      </trkpt>
      <trkpt lat="44.29326" lon="5.54702">
        <ele>1372</ele>
        <time>2016-05-15T15:21:12+02:00</time>
      </trkpt>
      <trkpt lat="44.29301" lon="5.5471">
        <ele>1368</ele>
        <time>2016-05-15T15:21:36+02:00</time>
      </trkpt>
      <trkpt lat="44.29278" lon="5.5472">
        <ele>1364</ele>
        <time>2016-05-15T15:21:58+02:00</time>
      </trkpt>
      <trkpt lat="44.29254" lon="5.5473">
        <ele>1361</ele>
        <time>2016-05-15T15:22:18+02:00</time>
      </trkpt>
      <trkpt lat="44.29232" lon="5.54742">
        <ele>1357</ele>
        <time>2016-05-15T15:22:42+02:00</time>
      </trkpt>
      <trkpt lat="44.29209" lon="5.54744">
        <ele>1355</ele>
        <time>2016-05-15T15:23:06+02:00</time>
      </trkpt>
      <trkpt lat="44.29188" lon="5.5474">
        <ele>1354</ele>
        <time>2016-05-15T15:23:34+02:00</time>
      </trkpt>
      <trkpt lat="44.29164" lon="5.54748">
        <ele>1352</ele>
        <time>2016-05-15T15:23:58+02:00</time>
      </trkpt>
      <trkpt lat="44.2914" lon="5.54751">
        <ele>1348</ele>
        <time>2016-05-15T15:24:24+02:00</time>
      </trkpt>
      <trkpt lat="44.2911" lon="5.5475">
        <ele>1344</ele>
        <time>2016-05-15T15:24:52+02:00</time>
      </trkpt>
      <trkpt lat="44.29093" lon="5.54772">
        <ele>1335</ele>
        <time>2016-05-15T15:25:12+02:00</time>
      </trkpt>
      <trkpt lat="44.29069" lon="5.54771">
        <ele>1333</ele>
        <time>2016-05-15T15:25:34+02:00</time>
      </trkpt>
      <trkpt lat="44.29046" lon="5.54779">
        <ele>1330</ele>
        <time>2016-05-15T15:26:02+02:00</time>
      </trkpt>
      <trkpt lat="44.29023" lon="5.54778">
        <ele>1329</ele>
        <time>2016-05-15T15:26:32+02:00</time>
      </trkpt>
      <trkpt lat="44.29006" lon="5.548">
        <ele>1327</ele>
        <time>2016-05-15T15:30:00+02:00</time>
      </trkpt>
      <trkpt lat="44.28984" lon="5.5481">
        <ele>1325</ele>
        <time>2016-05-15T15:31:24+02:00</time>
      </trkpt>
      <trkpt lat="44.28963" lon="5.54829">
        <ele>1324</ele>
        <time>2016-05-15T15:31:50+02:00</time>
      </trkpt>
      <trkpt lat="44.28942" lon="5.54841">
        <ele>1321</ele>
        <time>2016-05-15T15:32:16+02:00</time>
      </trkpt>
      <trkpt lat="44.2892" lon="5.5485">
        <ele>1318</ele>
        <time>2016-05-15T15:32:40+02:00</time>
      </trkpt>
      <trkpt lat="44.28898" lon="5.54865">
        <ele>1311</ele>
        <time>2016-05-15T15:33:06+02:00</time>
      </trkpt>
      <trkpt lat="44.28877" lon="5.54878">
        <ele>1305</ele>
        <time>2016-05-15T15:33:34+02:00</time>
      </trkpt>
      <trkpt lat="44.28857" lon="5.54896">
        <ele>1301</ele>
        <time>2016-05-15T15:34:04+02:00</time>
      </trkpt>
      <trkpt lat="44.28836" lon="5.54912">
        <ele>1300</ele>
        <time>2016-05-15T15:34:30+02:00</time>
      </trkpt>
      <trkpt lat="44.28814" lon="5.54922">
        <ele>1298</ele>
        <time>2016-05-15T15:34:52+02:00</time>
      </trkpt>
      <trkpt lat="44.28792" lon="5.54934">
        <ele>1296</ele>
        <time>2016-05-15T15:35:12+02:00</time>
      </trkpt>
      <trkpt lat="44.28769" lon="5.54939">
        <ele>1296</ele>
        <time>2016-05-15T15:35:34+02:00</time>
      </trkpt>
      <trkpt lat="44.28759" lon="5.54935">
        <ele>1297</ele>
        <time>2016-05-15T15:55:14+02:00</time>
      </trkpt>
      <trkpt lat="44.28722" lon="5.54969">
        <ele>1297</ele>
      </trkpt>
      <trkpt lat="44.28733" lon="5.54989">
        <ele>1296</ele>
      </trkpt>
      <trkpt lat="44.28721" lon="5.54968">
        <ele>1297</ele>
      </trkpt>
      <trkpt lat="44.2874" lon="5.54949">
        <ele>1296</ele>
      </trkpt>
      <trkpt lat="44.28754" lon="5.54927">
        <ele>1298</ele>
        <time>2016-05-15T15:55:49+02:00</time>
      </trkpt>
      <trkpt lat="44.2874" lon="5.54917">
        <ele>1298</ele>
        <time>2016-05-15T15:56:11+02:00</time>
      </trkpt>
      <trkpt lat="44.28731" lon="5.54904">
        <ele>1295</ele>
        <time>2016-05-15T15:58:40+02:00</time>
      </trkpt>
      <trkpt lat="44.28725" lon="5.54881">
        <ele>1291</ele>
        <time>2016-05-15T15:59:02+02:00</time>
      </trkpt>
      <trkpt lat="44.28716" lon="5.54849">
        <ele>1286</ele>
        <time>2016-05-15T15:59:36+02:00</time>
      </trkpt>
      <trkpt lat="44.28699" lon="5.5484">
        <ele>1282</ele>
        <time>2016-05-15T16:10:02+02:00</time>
      </trkpt>
      <trkpt lat="44.28681" lon="5.54793">
        <ele>1275</ele>
        <time>2016-05-15T16:10:24+02:00</time>
      </trkpt>
      <trkpt lat="44.28679" lon="5.54746">
        <ele>1271</ele>
        <time>2016-05-15T16:10:50+02:00</time>
      </trkpt>
      <trkpt lat="44.28685" lon="5.54722">
        <ele>1272</ele>
        <time>2016-05-15T16:11:18+02:00</time>
      </trkpt>
      <trkpt lat="44.28687" lon="5.54698">
        <ele>1271</ele>
        <time>2016-05-15T16:11:50+02:00</time>
      </trkpt>
      <trkpt lat="44.28691" lon="5.54657">
        <ele>1271</ele>
        <time>2016-05-15T16:12:20+02:00</time>
      </trkpt>
      <trkpt lat="44.28698" lon="5.54634">
        <ele>1271</ele>
        <time>2016-05-15T16:12:44+02:00</time>
      </trkpt>
      <trkpt lat="44.28719" lon="5.54612">
        <ele>1267</ele>
        <time>2016-05-15T16:13:03+02:00</time>
      </trkpt>
      <trkpt lat="44.28731" lon="5.54584">
        <ele>1263</ele>
        <time>2016-05-15T16:13:24+02:00</time>
      </trkpt>
      <trkpt lat="44.28748" lon="5.54562">
        <ele>1259</ele>
        <time>2016-05-15T16:13:43+02:00</time>
      </trkpt>
      <trkpt lat="44.28762" lon="5.54535">
        <ele>1258</ele>
        <time>2016-05-15T16:14:06+02:00</time>
      </trkpt>
      <trkpt lat="44.28779" lon="5.54514">
        <ele>1256</ele>
        <time>2016-05-15T16:14:22+02:00</time>
      </trkpt>
      <trkpt lat="44.2879" lon="5.54486">
        <ele>1253</ele>
        <time>2016-05-15T16:14:43+02:00</time>
      </trkpt>
      <trkpt lat="44.28801" lon="5.54457">
        <ele>1251</ele>
        <time>2016-05-15T16:15:06+02:00</time>
      </trkpt>
      <trkpt lat="44.28812" lon="5.54429">
        <ele>1247</ele>
        <time>2016-05-15T16:15:25+02:00</time>
      </trkpt>
      <trkpt lat="44.28825" lon="5.54403">
        <ele>1243</ele>
        <time>2016-05-15T16:15:43+02:00</time>
      </trkpt>
      <trkpt lat="44.28826" lon="5.54371">
        <ele>1241</ele>
        <time>2016-05-15T16:16:02+02:00</time>
      </trkpt>
      <trkpt lat="44.28842" lon="5.54348">
        <ele>1239</ele>
        <time>2016-05-15T16:16:19+02:00</time>
      </trkpt>
      <trkpt lat="44.28856" lon="5.54322">
        <ele>1238</ele>
        <time>2016-05-15T16:16:39+02:00</time>
      </trkpt>
      <trkpt lat="44.2887" lon="5.54298">
        <ele>1236</ele>
        <time>2016-05-15T16:16:58+02:00</time>
      </trkpt>
      <trkpt lat="44.28886" lon="5.54275">
        <ele>1234</ele>
        <time>2016-05-15T16:17:18+02:00</time>
      </trkpt>
      <trkpt lat="44.28899" lon="5.54249">
        <ele>1230</ele>
        <time>2016-05-15T16:17:37+02:00</time>
      </trkpt>
      <trkpt lat="44.2891" lon="5.5422">
        <ele>1226</ele>
        <time>2016-05-15T16:17:57+02:00</time>
      </trkpt>
      <trkpt lat="44.2892" lon="5.54191">
        <ele>1223</ele>
        <time>2016-05-15T16:18:18+02:00</time>
      </trkpt>
      <trkpt lat="44.28935" lon="5.54162">
        <ele>1222</ele>
        <time>2016-05-15T16:18:40+02:00</time>
      </trkpt>
      <trkpt lat="44.2895" lon="5.54133">
        <ele>1221</ele>
        <time>2016-05-15T16:18:58+02:00</time>
      </trkpt>
      <trkpt lat="44.28964" lon="5.54106">
        <ele>1218</ele>
        <time>2016-05-15T16:19:19+02:00</time>
      </trkpt>
      <trkpt lat="44.28978" lon="5.54081">
        <ele>1213</ele>
        <time>2016-05-15T16:19:40+02:00</time>
      </trkpt>
      <trkpt lat="44.28994" lon="5.54057">
        <ele>1209</ele>
        <time>2016-05-15T16:20:00+02:00</time>
      </trkpt>
      <trkpt lat="44.29005" lon="5.5403">
        <ele>1206</ele>
        <time>2016-05-15T16:20:20+02:00</time>
      </trkpt>
      <trkpt lat="44.2902" lon="5.54002">
        <ele>1204</ele>
        <time>2016-05-15T16:20:40+02:00</time>
      </trkpt>
      <trkpt lat="44.29037" lon="5.53977">
        <ele>1203</ele>
        <time>2016-05-15T16:20:58+02:00</time>
      </trkpt>
      <trkpt lat="44.29054" lon="5.53955">
        <ele>1200</ele>
        <time>2016-05-15T16:21:18+02:00</time>
      </trkpt>
      <trkpt lat="44.29077" lon="5.53937">
        <ele>1194</ele>
        <time>2016-05-15T16:21:34+02:00</time>
      </trkpt>
      <trkpt lat="44.29092" lon="5.5391">
        <ele>1191</ele>
        <time>2016-05-15T16:21:54+02:00</time>
      </trkpt>
      <trkpt lat="44.29107" lon="5.53883">
        <ele>1193</ele>
        <time>2016-05-15T16:22:14+02:00</time>
      </trkpt>
      <trkpt lat="44.29116" lon="5.53852">
        <ele>1191</ele>
        <time>2016-05-15T16:22:36+02:00</time>
      </trkpt>
      <trkpt lat="44.29131" lon="5.53825">
        <ele>1188</ele>
        <time>2016-05-15T16:22:54+02:00</time>
      </trkpt>
      <trkpt lat="44.29148" lon="5.538">
        <ele>1185</ele>
        <time>2016-05-15T16:23:12+02:00</time>
      </trkpt>
      <trkpt lat="44.2916" lon="5.53773">
        <ele>1180</ele>
        <time>2016-05-15T16:23:32+02:00</time>
      </trkpt>
      <trkpt lat="44.29173" lon="5.53745">
        <ele>1175</ele>
        <time>2016-05-15T16:23:52+02:00</time>
      </trkpt>
      <trkpt lat="44.29187" lon="5.53719">
        <ele>1175</ele>
        <time>2016-05-15T16:24:12+02:00</time>
      </trkpt>
      <trkpt lat="44.29204" lon="5.53695">
        <ele>1173</ele>
        <time>2016-05-15T16:24:30+02:00</time>
      </trkpt>
      <trkpt lat="44.29218" lon="5.53665">
        <ele>1168</ele>
        <time>2016-05-15T16:24:54+02:00</time>
      </trkpt>
      <trkpt lat="44.29237" lon="5.53645">
        <ele>1162</ele>
        <time>2016-05-15T16:25:12+02:00</time>
      </trkpt>
      <trkpt lat="44.29252" lon="5.5362">
        <ele>1157</ele>
        <time>2016-05-15T16:25:35+02:00</time>
      </trkpt>
      <trkpt lat="44.29262" lon="5.53592">
        <ele>1154</ele>
        <time>2016-05-15T16:25:54+02:00</time>
      </trkpt>
      <trkpt lat="44.29281" lon="5.53572">
        <ele>1153</ele>
        <time>2016-05-15T16:26:14+02:00</time>
      </trkpt>
      <trkpt lat="44.29299" lon="5.53549">
        <ele>1153</ele>
        <time>2016-05-15T16:26:36+02:00</time>
      </trkpt>
      <trkpt lat="44.2932" lon="5.53535">
        <ele>1155</ele>
        <time>2016-05-15T16:27:38+02:00</time>
      </trkpt>
      <trkpt lat="44.2934" lon="5.53519">
        <ele>1158</ele>
        <time>2016-05-15T16:28:12+02:00</time>
      </trkpt>
      <trkpt lat="44.2936" lon="5.53504">
        <ele>1161</ele>
        <time>2016-05-15T16:28:42+02:00</time>
      </trkpt>
      <trkpt lat="44.29384" lon="5.53495">
        <ele>1165</ele>
        <time>2016-05-15T16:29:14+02:00</time>
      </trkpt>
      <trkpt lat="44.29385" lon="5.53464">
        <ele>1169</ele>
        <time>2016-05-15T16:29:54+02:00</time>
      </trkpt>
      <trkpt lat="44.29402" lon="5.53442">
        <ele>1173</ele>
        <time>2016-05-15T16:30:40+02:00</time>
      </trkpt>
      <trkpt lat="44.29417" lon="5.53417">
        <ele>1176</ele>
        <time>2016-05-15T16:31:10+02:00</time>
      </trkpt>
      <trkpt lat="44.29423" lon="5.53384">
        <ele>1180</ele>
        <time>2016-05-15T16:31:40+02:00</time>
      </trkpt>
      <trkpt lat="44.29424" lon="5.53351">
        <ele>1183</ele>
        <time>2016-05-15T16:32:04+02:00</time>
      </trkpt>
      <trkpt lat="44.2943" lon="5.5332">
        <ele>1184</ele>
        <time>2016-05-15T16:32:26+02:00</time>
      </trkpt>
      <trkpt lat="44.29442" lon="5.53293">
        <ele>1183</ele>
        <time>2016-05-15T16:32:48+02:00</time>
      </trkpt>
      <trkpt lat="44.29456" lon="5.53265">
        <ele>1182</ele>
        <time>2016-05-15T16:33:12+02:00</time>
      </trkpt>
      <trkpt lat="44.2948" lon="5.53253">
        <ele>1186</ele>
        <time>2016-05-15T16:33:40+02:00</time>
      </trkpt>
      <trkpt lat="44.29494" lon="5.53226">
        <ele>1181</ele>
        <time>2016-05-15T16:34:00+02:00</time>
      </trkpt>
      <trkpt lat="44.29508" lon="5.53197">
        <ele>1178</ele>
        <time>2016-05-15T16:34:22+02:00</time>
      </trkpt>
      <trkpt lat="44.29522" lon="5.5317">
        <ele>1176</ele>
        <time>2016-05-15T16:34:40+02:00</time>
      </trkpt>
      <trkpt lat="44.2953" lon="5.5314">
        <ele>1172</ele>
        <time>2016-05-15T16:34:59+02:00</time>
      </trkpt>
      <trkpt lat="44.29534" lon="5.53109">
        <ele>1167</ele>
        <time>2016-05-15T16:35:22+02:00</time>
      </trkpt>
      <trkpt lat="44.29544" lon="5.53079">
        <ele>1164</ele>
        <time>2016-05-15T16:35:40+02:00</time>
      </trkpt>
      <trkpt lat="44.29556" lon="5.53052">
        <ele>1161</ele>
        <time>2016-05-15T16:36:00+02:00</time>
      </trkpt>
      <trkpt lat="44.29572" lon="5.5303">
        <ele>1162</ele>
        <time>2016-05-15T16:36:20+02:00</time>
      </trkpt>
      <trkpt lat="44.29589" lon="5.53009">
        <ele>1163</ele>
        <time>2016-05-15T16:36:46+02:00</time>
      </trkpt>
      <trkpt lat="44.29602" lon="5.52981">
        <ele>1161</ele>
        <time>2016-05-15T16:37:14+02:00</time>
      </trkpt>
      <trkpt lat="44.29617" lon="5.52957">
        <ele>1161</ele>
        <time>2016-05-15T16:37:34+02:00</time>
      </trkpt>
      <trkpt lat="44.29633" lon="5.52932">
        <ele>1162</ele>
        <time>2016-05-15T16:37:56+02:00</time>
      </trkpt>
      <trkpt lat="44.29651" lon="5.52911">
        <ele>1164</ele>
        <time>2016-05-15T16:38:17+02:00</time>
      </trkpt>
      <trkpt lat="44.29667" lon="5.52888">
        <ele>1165</ele>
        <time>2016-05-15T16:38:38+02:00</time>
      </trkpt>
      <trkpt lat="44.2968" lon="5.5286">
        <ele>1163</ele>
        <time>2016-05-15T16:38:58+02:00</time>
      </trkpt>
      <trkpt lat="44.29691" lon="5.52832">
        <ele>1162</ele>
        <time>2016-05-15T16:39:20+02:00</time>
      </trkpt>
      <trkpt lat="44.29702" lon="5.52805">
        <ele>1160</ele>
        <time>2016-05-15T16:39:40+02:00</time>
      </trkpt>
      <trkpt lat="44.29714" lon="5.52776">
        <ele>1159</ele>
        <time>2016-05-15T16:40:00+02:00</time>
      </trkpt>
      <trkpt lat="44.29722" lon="5.52746">
        <ele>1157</ele>
        <time>2016-05-15T16:40:20+02:00</time>
      </trkpt>
      <trkpt lat="44.29728" lon="5.52715">
        <ele>1155</ele>
        <time>2016-05-15T16:40:38+02:00</time>
      </trkpt>
      <trkpt lat="44.29731" lon="5.52684">
        <ele>1153</ele>
        <time>2016-05-15T16:46:18+02:00</time>
      </trkpt>
      <trkpt lat="44.29742" lon="5.52656">
        <ele>1152</ele>
        <time>2016-05-15T16:46:35+02:00</time>
      </trkpt>
      <trkpt lat="44.29752" lon="5.52627">
        <ele>1150</ele>
        <time>2016-05-15T16:46:52+02:00</time>
      </trkpt>
      <trkpt lat="44.2976" lon="5.52594">
        <ele>1148</ele>
        <time>2016-05-15T16:47:12+02:00</time>
      </trkpt>
      <trkpt lat="44.29769" lon="5.52564">
        <ele>1148</ele>
        <time>2016-05-15T16:47:30+02:00</time>
      </trkpt>
      <trkpt lat="44.29777" lon="5.52534">
        <ele>1149</ele>
        <time>2016-05-15T16:47:48+02:00</time>
      </trkpt>
      <trkpt lat="44.29778" lon="5.52501">
        <ele>1147</ele>
        <time>2016-05-15T16:48:06+02:00</time>
      </trkpt>
      <trkpt lat="44.29768" lon="5.52473">
        <ele>1144</ele>
        <time>2016-05-15T16:48:26+02:00</time>
      </trkpt>
      <trkpt lat="44.29724" lon="5.5245">
        <ele>1131</ele>
        <time>2016-05-15T16:49:06+02:00</time>
      </trkpt>
      <trkpt lat="44.297" lon="5.52451">
        <ele>1124</ele>
        <time>2016-05-15T16:49:24+02:00</time>
      </trkpt>
      <trkpt lat="44.29675" lon="5.52454">
        <ele>1117</ele>
        <time>2016-05-15T16:49:44+02:00</time>
      </trkpt>
      <trkpt lat="44.29653" lon="5.52466">
        <ele>1112</ele>
        <time>2016-05-15T16:50:06+02:00</time>
      </trkpt>
      <trkpt lat="44.29631" lon="5.52478">
        <ele>1108</ele>
        <time>2016-05-15T16:50:24+02:00</time>
      </trkpt>
      <trkpt lat="44.29612" lon="5.52498">
        <ele>1107</ele>
        <time>2016-05-15T16:50:44+02:00</time>
      </trkpt>
      <trkpt lat="44.29596" lon="5.52522">
        <ele>1106</ele>
        <time>2016-05-15T16:51:06+02:00</time>
      </trkpt>
      <trkpt lat="44.29581" lon="5.52546">
        <ele>1104</ele>
        <time>2016-05-15T16:51:24+02:00</time>
      </trkpt>
      <trkpt lat="44.29563" lon="5.52569">
        <ele>1101</ele>
        <time>2016-05-15T16:51:42+02:00</time>
      </trkpt>
      <trkpt lat="44.29541" lon="5.52582">
        <ele>1097</ele>
        <time>2016-05-15T16:52:00+02:00</time>
      </trkpt>
      <trkpt lat="44.29518" lon="5.52593">
        <ele>1092</ele>
        <time>2016-05-15T16:52:20+02:00</time>
      </trkpt>
      <trkpt lat="44.29496" lon="5.526">
        <ele>1086</ele>
        <time>2016-05-15T16:52:44+02:00</time>
      </trkpt>
      <trkpt lat="44.29474" lon="5.52612">
        <ele>1081</ele>
        <time>2016-05-15T16:53:02+02:00</time>
      </trkpt>
      <trkpt lat="44.29452" lon="5.52626">
        <ele>1075</ele>
        <time>2016-05-15T16:53:28+02:00</time>
      </trkpt>
      <trkpt lat="44.2943" lon="5.52635">
        <ele>1070</ele>
        <time>2016-05-15T16:53:43+02:00</time>
      </trkpt>
      <trkpt lat="44.29408" lon="5.52647">
        <ele>1066</ele>
        <time>2016-05-15T16:54:04+02:00</time>
      </trkpt>
      <trkpt lat="44.29386" lon="5.5266">
        <ele>1062</ele>
        <time>2016-05-15T16:54:26+02:00</time>
      </trkpt>
      <trkpt lat="44.29364" lon="5.52671">
        <ele>1057</ele>
        <time>2016-05-15T16:54:48+02:00</time>
      </trkpt>
      <trkpt lat="44.29354" lon="5.52642">
        <ele>1051</ele>
        <time>2016-05-15T16:55:14+02:00</time>
      </trkpt>
      <trkpt lat="44.29359" lon="5.52611">
        <ele>1048</ele>
        <time>2016-05-15T16:55:32+02:00</time>
      </trkpt>
      <trkpt lat="44.29371" lon="5.52582">
        <ele>1047</ele>
        <time>2016-05-15T16:55:52+02:00</time>
      </trkpt>
      <trkpt lat="44.29381" lon="5.52552">
        <ele>1044</ele>
        <time>2016-05-15T16:56:12+02:00</time>
      </trkpt>
      <trkpt lat="44.29389" lon="5.52522">
        <ele>1040</ele>
        <time>2016-05-15T16:56:32+02:00</time>
      </trkpt>
      <trkpt lat="44.29394" lon="5.5249">
        <ele>1036</ele>
        <time>2016-05-15T16:56:54+02:00</time>
      </trkpt>
      <trkpt lat="44.29396" lon="5.52458">
        <ele>1032</ele>
        <time>2016-05-15T16:57:13+02:00</time>
      </trkpt>
      <trkpt lat="44.29397" lon="5.52426">
        <ele>1028</ele>
        <time>2016-05-15T16:57:30+02:00</time>
      </trkpt>
      <trkpt lat="44.29399" lon="5.52392">
        <ele>1025</ele>
        <time>2016-05-15T16:57:50+02:00</time>
      </trkpt>
      <trkpt lat="44.29402" lon="5.5236">
        <ele>1023</ele>
        <time>2016-05-15T16:58:08+02:00</time>
      </trkpt>
      <trkpt lat="44.29404" lon="5.52328">
        <ele>1020</ele>
        <time>2016-05-15T16:58:28+02:00</time>
      </trkpt>
      <trkpt lat="44.29408" lon="5.52295">
        <ele>1016</ele>
        <time>2016-05-15T16:58:46+02:00</time>
      </trkpt>
      <trkpt lat="44.29397" lon="5.52266">
        <ele>1010</ele>
        <time>2016-05-15T16:59:10+02:00</time>
      </trkpt>
      <trkpt lat="44.29373" lon="5.52257">
        <ele>1006</ele>
        <time>2016-05-15T16:59:32+02:00</time>
      </trkpt>
      <trkpt lat="44.29349" lon="5.52262">
        <ele>1003</ele>
        <time>2016-05-15T16:59:51+02:00</time>
      </trkpt>
      <trkpt lat="44.29325" lon="5.52265">
        <ele>999</ele>
        <time>2016-05-15T17:00:10+02:00</time>
      </trkpt>
      <trkpt lat="44.29302" lon="5.52268">
        <ele>996</ele>
        <time>2016-05-15T17:00:32+02:00</time>
      </trkpt>
      <trkpt lat="44.29279" lon="5.52267">
        <ele>993</ele>
        <time>2016-05-15T17:00:50+02:00</time>
      </trkpt>
      <trkpt lat="44.29255" lon="5.52263">
        <ele>989</ele>
        <time>2016-05-15T17:01:10+02:00</time>
      </trkpt>
      <trkpt lat="44.29232" lon="5.52264">
        <ele>985</ele>
        <time>2016-05-15T17:01:30+02:00</time>
      </trkpt>
      <trkpt lat="44.29208" lon="5.52273">
        <ele>980</ele>
        <time>2016-05-15T17:01:50+02:00</time>
      </trkpt>
      <trkpt lat="44.29195" lon="5.52247">
        <ele>976</ele>
        <time>2016-05-15T17:02:14+02:00</time>
      </trkpt>
      <trkpt lat="44.29185" lon="5.52218">
        <ele>969</ele>
        <time>2016-05-15T17:02:36+02:00</time>
      </trkpt>
      <trkpt lat="44.29164" lon="5.52201">
        <ele>962</ele>
        <time>2016-05-15T17:02:56+02:00</time>
      </trkpt>
      <trkpt lat="44.29141" lon="5.52205">
        <ele>957</ele>
        <time>2016-05-15T17:03:16+02:00</time>
      </trkpt>
      <trkpt lat="44.29119" lon="5.52217">
        <ele>954</ele>
        <time>2016-05-15T17:03:34+02:00</time>
      </trkpt>
      <trkpt lat="44.29097" lon="5.52227">
        <ele>950</ele>
        <time>2016-05-15T17:03:52+02:00</time>
      </trkpt>
      <trkpt lat="44.29079" lon="5.52244">
        <ele>949</ele>
        <time>2016-05-15T17:04:12+02:00</time>
      </trkpt>
      <trkpt lat="44.29071" lon="5.52274">
        <ele>950</ele>
        <time>2016-05-15T17:04:34+02:00</time>
      </trkpt>
      <trkpt lat="44.29074" lon="5.52308">
        <ele>953</ele>
        <time>2016-05-15T17:04:52+02:00</time>
      </trkpt>
      <trkpt lat="44.29077" lon="5.52341">
        <ele>955</ele>
        <time>2016-05-15T17:05:10+02:00</time>
      </trkpt>
      <trkpt lat="44.29083" lon="5.52374">
        <ele>955</ele>
        <time>2016-05-15T17:05:32+02:00</time>
      </trkpt>
      <trkpt lat="44.29084" lon="5.52406">
        <ele>953</ele>
        <time>2016-05-15T17:05:48+02:00</time>
      </trkpt>
      <trkpt lat="44.29087" lon="5.52438">
        <ele>952</ele>
        <time>2016-05-15T17:06:06+02:00</time>
      </trkpt>
      <trkpt lat="44.2909" lon="5.5247">
        <ele>951</ele>
        <time>2016-05-15T17:06:30+02:00</time>
      </trkpt>
      <trkpt lat="44.29079" lon="5.525">
        <ele>947</ele>
        <time>2016-05-15T17:06:48+02:00</time>
      </trkpt>
      <trkpt lat="44.29069" lon="5.52529">
        <ele>944</ele>
        <time>2016-05-15T17:07:28+02:00</time>
      </trkpt>
      <trkpt lat="44.29066" lon="5.52562">
        <ele>943</ele>
        <time>2016-05-15T17:07:46+02:00</time>
      </trkpt>
      <trkpt lat="44.29063" lon="5.52596">
        <ele>942</ele>
        <time>2016-05-15T17:08:04+02:00</time>
      </trkpt>
      <trkpt lat="44.2906" lon="5.52629">
        <ele>943</ele>
        <time>2016-05-15T17:08:22+02:00</time>
      </trkpt>
      <trkpt lat="44.29056" lon="5.52662">
        <ele>942</ele>
        <time>2016-05-15T17:08:40+02:00</time>
      </trkpt>
      <trkpt lat="44.29058" lon="5.52694">
        <ele>945</ele>
        <time>2016-05-15T17:08:58+02:00</time>
      </trkpt>
      <trkpt lat="44.29061" lon="5.52728">
        <ele>949</ele>
        <time>2016-05-15T17:09:16+02:00</time>
      </trkpt>
      <trkpt lat="44.29059" lon="5.52762">
        <ele>951</ele>
        <time>2016-05-15T17:09:32+02:00</time>
      </trkpt>
      <trkpt lat="44.2906" lon="5.52795">
        <ele>953</ele>
        <time>2016-05-15T17:09:50+02:00</time>
      </trkpt>
      <trkpt lat="44.29067" lon="5.5283">
        <ele>957</ele>
        <time>2016-05-15T17:10:10+02:00</time>
      </trkpt>
      <trkpt lat="44.2905" lon="5.52862">
        <ele>957</ele>
        <time>2016-05-15T17:10:28+02:00</time>
      </trkpt>
      <trkpt lat="44.29055" lon="5.52896">
        <ele>960</ele>
        <time>2016-05-15T17:10:48+02:00</time>
      </trkpt>
      <trkpt lat="44.29046" lon="5.52926">
        <ele>963</ele>
        <time>2016-05-15T17:11:08+02:00</time>
      </trkpt>
      <trkpt lat="44.29026" lon="5.52904">
        <ele>959</ele>
        <time>2016-05-15T17:11:26+02:00</time>
      </trkpt>
      <trkpt lat="44.2901" lon="5.52877">
        <ele>953</ele>
        <time>2016-05-15T17:11:44+02:00</time>
      </trkpt>
      <trkpt lat="44.28998" lon="5.5285">
        <ele>947</ele>
        <time>2016-05-15T17:12:00+02:00</time>
      </trkpt>
      <trkpt lat="44.28983" lon="5.52825">
        <ele>944</ele>
        <time>2016-05-15T17:12:14+02:00</time>
      </trkpt>
      <trkpt lat="44.28975" lon="5.5278">
        <ele>937</ele>
        <time>2016-05-15T17:12:34+02:00</time>
      </trkpt>
      <trkpt lat="44.28976" lon="5.5276">
        <ele>934</ele>
        <time>2016-05-15T17:12:50+02:00</time>
      </trkpt>
      <trkpt lat="44.28968" lon="5.52729">
        <ele>929</ele>
        <time>2016-05-15T17:13:08+02:00</time>
      </trkpt>
      <trkpt lat="44.28953" lon="5.52705">
        <ele>924</ele>
        <time>2016-05-15T17:13:24+02:00</time>
      </trkpt>
      <trkpt lat="44.28933" lon="5.52686">
        <ele>918</ele>
        <time>2016-05-15T17:13:44+02:00</time>
      </trkpt>
      <trkpt lat="44.2891" lon="5.52692">
        <ele>917</ele>
        <time>2016-05-15T17:14:02+02:00</time>
      </trkpt>
      <trkpt lat="44.28873" lon="5.52707">
        <ele>915</ele>
      </trkpt>
      <trkpt lat="44.28864" lon="5.52729">
        <ele>919</ele>
        <time>2016-05-15T17:14:38+02:00</time>
      </trkpt>
      <trkpt lat="44.28848" lon="5.52737">
        <ele>918</ele>
        <time>2016-05-15T17:14:56+02:00</time>
      </trkpt>
      <trkpt lat="44.28832" lon="5.52754">
        <ele>918</ele>
        <time>2016-05-15T17:15:14+02:00</time>
      </trkpt>
      <trkpt lat="44.2881" lon="5.5279">
        <ele>920</ele>
        <time>2016-05-15T17:15:32+02:00</time>
      </trkpt>
      <trkpt lat="44.28818" lon="5.52741">
        <ele>912</ele>
        <time>2016-05-15T17:16:10+02:00</time>
      </trkpt>
      <trkpt lat="44.2883" lon="5.52727">
        <ele>912</ele>
        <time>2016-05-15T17:16:28+02:00</time>
      </trkpt>
      <trkpt lat="44.28848" lon="5.52697">
        <ele>909</ele>
        <time>2016-05-15T17:16:44+02:00</time>
      </trkpt>
      <trkpt lat="44.28868" lon="5.52678">
        <ele>907</ele>
        <time>2016-05-15T17:17:04+02:00</time>
      </trkpt>
      <trkpt lat="44.28879" lon="5.52671">
        <ele>907</ele>
        <time>2016-05-15T17:29:07+02:00</time>
      </trkpt>
      <trkpt lat="44.28885" lon="5.52663">
        <ele>906</ele>
        <time>2016-05-15T17:29:12+02:00</time>
      </trkpt>
    </trkseg>
  </trk>
</gpx>